<?xml version="1.0" encoding="UTF-8" standalone="no" ?>
<gpx xmlns="http://www.topografix.com/GPX/1/1" xmlns:xsi="http://www.w3.org/2001/XMLSchema-instance" xsi:schemaLocation="http://www.topografix.com/GPX/1/1 http://www.topografix.com/GPX/1/1/gpx.xsd" version="1.1" creator="VisuGPX - https://www.visugpx.com">
  <metadata>
    <name>Saint-Seine su Vingeanne + Château de Rozières</name>
    <desc><![CDATA[Charmante balade sans réelle difficulté qui permet de découvrir le beau village de Saint-Seine sur Vingeanne. Avec un coup de coeur pour le chateau médiéval de Rozières où on apprécie de pique-niquer avant la visite.]]></desc>
  </metadata>
  <trk>
    <name><![CDATA[2019-04-02-01]]></name>
    <trkseg>
      <trkpt lat="47.49936" lon="5.40361">
        <ele>220.6</ele>
        <time>2019-04-02T07:34:40Z</time>
      </trkpt>
      <trkpt lat="47.49936" lon="5.40361">
        <ele>220.6</ele>
        <time>2019-04-02T07:34:41Z</time>
      </trkpt>
      <trkpt lat="47.49939" lon="5.40347">
        <ele>219.8</ele>
        <time>2019-04-02T07:35:12Z</time>
      </trkpt>
      <trkpt lat="47.49942" lon="5.40333">
        <ele>219.1</ele>
        <time>2019-04-02T07:35:23Z</time>
      </trkpt>
      <trkpt lat="47.49946" lon="5.4032">
        <ele>218.5</ele>
        <time>2019-04-02T07:35:33Z</time>
      </trkpt>
      <trkpt lat="47.49951" lon="5.40308">
        <ele>217.8</ele>
        <time>2019-04-02T07:35:41Z</time>
      </trkpt>
      <trkpt lat="47.49957" lon="5.40297">
        <ele>217.2</ele>
        <time>2019-04-02T07:35:50Z</time>
      </trkpt>
      <trkpt lat="47.49963" lon="5.40285">
        <ele>216.6</ele>
        <time>2019-04-02T07:35:56Z</time>
      </trkpt>
      <trkpt lat="47.49968" lon="5.40273">
        <ele>216.1</ele>
        <time>2019-04-02T07:36:03Z</time>
      </trkpt>
      <trkpt lat="47.49973" lon="5.40261">
        <ele>215.7</ele>
        <time>2019-04-02T07:36:11Z</time>
      </trkpt>
      <trkpt lat="47.49978" lon="5.40247">
        <ele>215.3</ele>
        <time>2019-04-02T07:36:20Z</time>
      </trkpt>
      <trkpt lat="47.49983" lon="5.40235">
        <ele>215.1</ele>
        <time>2019-04-02T07:36:28Z</time>
      </trkpt>
      <trkpt lat="47.49988" lon="5.40223">
        <ele>214.9</ele>
        <time>2019-04-02T07:36:35Z</time>
      </trkpt>
      <trkpt lat="47.49994" lon="5.40211">
        <ele>214.6</ele>
        <time>2019-04-02T07:36:43Z</time>
      </trkpt>
      <trkpt lat="47.49998" lon="5.40199">
        <ele>214.4</ele>
        <time>2019-04-02T07:36:50Z</time>
      </trkpt>
      <trkpt lat="47.50003" lon="5.40187">
        <ele>214.2</ele>
        <time>2019-04-02T07:36:57Z</time>
      </trkpt>
      <trkpt lat="47.50006" lon="5.40174">
        <ele>213.9</ele>
        <time>2019-04-02T07:37:06Z</time>
      </trkpt>
      <trkpt lat="47.50012" lon="5.40163">
        <ele>213.7</ele>
        <time>2019-04-02T07:37:15Z</time>
      </trkpt>
      <trkpt lat="47.50021" lon="5.40157">
        <ele>213.6</ele>
        <time>2019-04-02T07:37:24Z</time>
      </trkpt>
      <trkpt lat="47.5003" lon="5.40159">
        <ele>213.4</ele>
        <time>2019-04-02T07:37:31Z</time>
      </trkpt>
      <trkpt lat="47.5004" lon="5.40165">
        <ele>213.1</ele>
        <time>2019-04-02T07:37:38Z</time>
      </trkpt>
      <trkpt lat="47.50049" lon="5.4017">
        <ele>212.9</ele>
        <time>2019-04-02T07:37:47Z</time>
      </trkpt>
      <trkpt lat="47.50057" lon="5.40178">
        <ele>212.8</ele>
        <time>2019-04-02T07:37:57Z</time>
      </trkpt>
      <trkpt lat="47.50066" lon="5.40185">
        <ele>212.8</ele>
        <time>2019-04-02T07:38:05Z</time>
      </trkpt>
      <trkpt lat="47.50074" lon="5.4019">
        <ele>212.7</ele>
        <time>2019-04-02T07:38:12Z</time>
      </trkpt>
      <trkpt lat="47.50083" lon="5.40196">
        <ele>212.7</ele>
        <time>2019-04-02T07:38:23Z</time>
      </trkpt>
      <trkpt lat="47.50091" lon="5.40202">
        <ele>212.9</ele>
        <time>2019-04-02T07:38:32Z</time>
      </trkpt>
      <trkpt lat="47.50099" lon="5.40208">
        <ele>213.2</ele>
        <time>2019-04-02T07:38:38Z</time>
      </trkpt>
      <trkpt lat="47.50109" lon="5.40212">
        <ele>213.3</ele>
        <time>2019-04-02T07:38:45Z</time>
      </trkpt>
      <trkpt lat="47.50119" lon="5.40217">
        <ele>213.5</ele>
        <time>2019-04-02T07:38:53Z</time>
      </trkpt>
      <trkpt lat="47.50127" lon="5.40225">
        <ele>213.7</ele>
        <time>2019-04-02T07:39:01Z</time>
      </trkpt>
      <trkpt lat="47.50134" lon="5.40234">
        <ele>213.8</ele>
        <time>2019-04-02T07:39:09Z</time>
      </trkpt>
      <trkpt lat="47.50142" lon="5.40242">
        <ele>213.9</ele>
        <time>2019-04-02T07:39:14Z</time>
      </trkpt>
      <trkpt lat="47.5015" lon="5.4025">
        <ele>214</ele>
        <time>2019-04-02T07:39:21Z</time>
      </trkpt>
      <trkpt lat="47.50159" lon="5.40257">
        <ele>214</ele>
        <time>2019-04-02T07:39:28Z</time>
      </trkpt>
      <trkpt lat="47.50168" lon="5.40262">
        <ele>214</ele>
        <time>2019-04-02T07:39:36Z</time>
      </trkpt>
      <trkpt lat="47.50177" lon="5.40267">
        <ele>214</ele>
        <time>2019-04-02T07:39:44Z</time>
      </trkpt>
      <trkpt lat="47.50185" lon="5.40273">
        <ele>214.1</ele>
        <time>2019-04-02T07:39:52Z</time>
      </trkpt>
      <trkpt lat="47.50193" lon="5.4028">
        <ele>214.1</ele>
        <time>2019-04-02T07:40:00Z</time>
      </trkpt>
      <trkpt lat="47.50201" lon="5.40287">
        <ele>214.2</ele>
        <time>2019-04-02T07:40:07Z</time>
      </trkpt>
      <trkpt lat="47.50209" lon="5.40295">
        <ele>214.3</ele>
        <time>2019-04-02T07:40:15Z</time>
      </trkpt>
      <trkpt lat="47.50217" lon="5.40302">
        <ele>214.4</ele>
        <time>2019-04-02T07:40:22Z</time>
      </trkpt>
      <trkpt lat="47.50225" lon="5.40309">
        <ele>214.5</ele>
        <time>2019-04-02T07:40:30Z</time>
      </trkpt>
      <trkpt lat="47.50233" lon="5.40315">
        <ele>214.6</ele>
        <time>2019-04-02T07:40:38Z</time>
      </trkpt>
      <trkpt lat="47.50242" lon="5.40321">
        <ele>214.8</ele>
        <time>2019-04-02T07:40:46Z</time>
      </trkpt>
      <trkpt lat="47.5025" lon="5.40328">
        <ele>214.9</ele>
        <time>2019-04-02T07:40:53Z</time>
      </trkpt>
      <trkpt lat="47.50258" lon="5.40335">
        <ele>214.9</ele>
        <time>2019-04-02T07:41:01Z</time>
      </trkpt>
      <trkpt lat="47.50266" lon="5.40342">
        <ele>214.7</ele>
        <time>2019-04-02T07:41:09Z</time>
      </trkpt>
      <trkpt lat="47.50274" lon="5.4035">
        <ele>214.5</ele>
        <time>2019-04-02T07:41:17Z</time>
      </trkpt>
      <trkpt lat="47.50281" lon="5.4036">
        <ele>214.4</ele>
        <time>2019-04-02T07:41:26Z</time>
      </trkpt>
      <trkpt lat="47.50288" lon="5.40371">
        <ele>214.3</ele>
        <time>2019-04-02T07:41:35Z</time>
      </trkpt>
      <trkpt lat="47.50292" lon="5.40383">
        <ele>214.2</ele>
        <time>2019-04-02T07:41:43Z</time>
      </trkpt>
      <trkpt lat="47.50296" lon="5.40397">
        <ele>214.2</ele>
        <time>2019-04-02T07:41:52Z</time>
      </trkpt>
      <trkpt lat="47.50299" lon="5.4041">
        <ele>214.2</ele>
        <time>2019-04-02T07:42:01Z</time>
      </trkpt>
      <trkpt lat="47.503" lon="5.40424">
        <ele>214.3</ele>
        <time>2019-04-02T07:42:09Z</time>
      </trkpt>
      <trkpt lat="47.50301" lon="5.40439">
        <ele>214.6</ele>
        <time>2019-04-02T07:42:18Z</time>
      </trkpt>
      <trkpt lat="47.50305" lon="5.40451">
        <ele>214.9</ele>
        <time>2019-04-02T07:42:27Z</time>
      </trkpt>
      <trkpt lat="47.50311" lon="5.40461">
        <ele>215.1</ele>
        <time>2019-04-02T07:42:37Z</time>
      </trkpt>
      <trkpt lat="47.50316" lon="5.40472">
        <ele>215.4</ele>
        <time>2019-04-02T07:42:45Z</time>
      </trkpt>
      <trkpt lat="47.50322" lon="5.40484">
        <ele>215.6</ele>
        <time>2019-04-02T07:42:53Z</time>
      </trkpt>
      <trkpt lat="47.50328" lon="5.40493">
        <ele>215.8</ele>
        <time>2019-04-02T07:43:02Z</time>
      </trkpt>
      <trkpt lat="47.50335" lon="5.40505">
        <ele>216</ele>
        <time>2019-04-02T07:43:11Z</time>
      </trkpt>
      <trkpt lat="47.50341" lon="5.40516">
        <ele>215.9</ele>
        <time>2019-04-02T07:43:19Z</time>
      </trkpt>
      <trkpt lat="47.50348" lon="5.40525">
        <ele>215.8</ele>
        <time>2019-04-02T07:43:27Z</time>
      </trkpt>
      <trkpt lat="47.50354" lon="5.40534">
        <ele>215.8</ele>
        <time>2019-04-02T07:43:35Z</time>
      </trkpt>
      <trkpt lat="47.50361" lon="5.40544">
        <ele>215.7</ele>
        <time>2019-04-02T07:43:43Z</time>
      </trkpt>
      <trkpt lat="47.50368" lon="5.40555">
        <ele>215.6</ele>
        <time>2019-04-02T07:43:51Z</time>
      </trkpt>
      <trkpt lat="47.50373" lon="5.40568">
        <ele>215.5</ele>
        <time>2019-04-02T07:44:00Z</time>
      </trkpt>
      <trkpt lat="47.50377" lon="5.4058">
        <ele>215.5</ele>
        <time>2019-04-02T07:44:08Z</time>
      </trkpt>
      <trkpt lat="47.50382" lon="5.40593">
        <ele>215.5</ele>
        <time>2019-04-02T07:44:16Z</time>
      </trkpt>
      <trkpt lat="47.50386" lon="5.40605">
        <ele>215.6</ele>
        <time>2019-04-02T07:44:24Z</time>
      </trkpt>
      <trkpt lat="47.50392" lon="5.40616">
        <ele>215.5</ele>
        <time>2019-04-02T07:44:33Z</time>
      </trkpt>
      <trkpt lat="47.50398" lon="5.40629">
        <ele>215.5</ele>
        <time>2019-04-02T07:44:41Z</time>
      </trkpt>
      <trkpt lat="47.50404" lon="5.40638">
        <ele>215.3</ele>
        <time>2019-04-02T07:44:49Z</time>
      </trkpt>
      <trkpt lat="47.50413" lon="5.40644">
        <ele>215.1</ele>
        <time>2019-04-02T07:44:58Z</time>
      </trkpt>
      <trkpt lat="47.50422" lon="5.4065">
        <ele>215</ele>
        <time>2019-04-02T07:45:08Z</time>
      </trkpt>
      <trkpt lat="47.5043" lon="5.40658">
        <ele>215.1</ele>
        <time>2019-04-02T07:45:19Z</time>
      </trkpt>
      <trkpt lat="47.50438" lon="5.40664">
        <ele>215.2</ele>
        <time>2019-04-02T07:45:28Z</time>
      </trkpt>
      <trkpt lat="47.50448" lon="5.40669">
        <ele>215.4</ele>
        <time>2019-04-02T07:45:37Z</time>
      </trkpt>
      <trkpt lat="47.50456" lon="5.40676">
        <ele>215.6</ele>
        <time>2019-04-02T07:45:46Z</time>
      </trkpt>
      <trkpt lat="47.50464" lon="5.40683">
        <ele>215.7</ele>
        <time>2019-04-02T07:45:54Z</time>
      </trkpt>
      <trkpt lat="47.50473" lon="5.4069">
        <ele>215.8</ele>
        <time>2019-04-02T07:46:03Z</time>
      </trkpt>
      <trkpt lat="47.50481" lon="5.40696">
        <ele>215.9</ele>
        <time>2019-04-02T07:46:12Z</time>
      </trkpt>
      <trkpt lat="47.5049" lon="5.40704">
        <ele>216</ele>
        <time>2019-04-02T07:46:20Z</time>
      </trkpt>
      <trkpt lat="47.50498" lon="5.40712">
        <ele>216</ele>
        <time>2019-04-02T07:46:28Z</time>
      </trkpt>
      <trkpt lat="47.50507" lon="5.4072">
        <ele>215.9</ele>
        <time>2019-04-02T07:46:36Z</time>
      </trkpt>
      <trkpt lat="47.50516" lon="5.40726">
        <ele>215.9</ele>
        <time>2019-04-02T07:46:44Z</time>
      </trkpt>
      <trkpt lat="47.50524" lon="5.40734">
        <ele>215.8</ele>
        <time>2019-04-02T07:46:52Z</time>
      </trkpt>
      <trkpt lat="47.50532" lon="5.40743">
        <ele>215.7</ele>
        <time>2019-04-02T07:47:00Z</time>
      </trkpt>
      <trkpt lat="47.50537" lon="5.40755">
        <ele>215.6</ele>
        <time>2019-04-02T07:47:09Z</time>
      </trkpt>
      <trkpt lat="47.50539" lon="5.40768">
        <ele>215.6</ele>
        <time>2019-04-02T07:47:17Z</time>
      </trkpt>
      <trkpt lat="47.5054" lon="5.40782">
        <ele>215.7</ele>
        <time>2019-04-02T07:47:25Z</time>
      </trkpt>
      <trkpt lat="47.5054" lon="5.40796">
        <ele>215.8</ele>
        <time>2019-04-02T07:47:33Z</time>
      </trkpt>
      <trkpt lat="47.50539" lon="5.4081">
        <ele>215.9</ele>
        <time>2019-04-02T07:47:40Z</time>
      </trkpt>
      <trkpt lat="47.5054" lon="5.40824">
        <ele>215.9</ele>
        <time>2019-04-02T07:47:48Z</time>
      </trkpt>
      <trkpt lat="47.50541" lon="5.40838">
        <ele>216</ele>
        <time>2019-04-02T07:47:57Z</time>
      </trkpt>
      <trkpt lat="47.50541" lon="5.40853">
        <ele>216</ele>
        <time>2019-04-02T07:48:06Z</time>
      </trkpt>
      <trkpt lat="47.50542" lon="5.40868">
        <ele>216</ele>
        <time>2019-04-02T07:48:14Z</time>
      </trkpt>
      <trkpt lat="47.50544" lon="5.40882">
        <ele>216</ele>
        <time>2019-04-02T07:48:23Z</time>
      </trkpt>
      <trkpt lat="47.50547" lon="5.40896">
        <ele>216</ele>
        <time>2019-04-02T07:48:31Z</time>
      </trkpt>
      <trkpt lat="47.50552" lon="5.40907">
        <ele>216</ele>
        <time>2019-04-02T07:48:39Z</time>
      </trkpt>
      <trkpt lat="47.50559" lon="5.40917">
        <ele>216</ele>
        <time>2019-04-02T07:48:48Z</time>
      </trkpt>
      <trkpt lat="47.50568" lon="5.40923">
        <ele>216.1</ele>
        <time>2019-04-02T07:48:56Z</time>
      </trkpt>
      <trkpt lat="47.50576" lon="5.40929">
        <ele>216.3</ele>
        <time>2019-04-02T07:49:04Z</time>
      </trkpt>
      <trkpt lat="47.50585" lon="5.40935">
        <ele>216.4</ele>
        <time>2019-04-02T07:49:13Z</time>
      </trkpt>
      <trkpt lat="47.50593" lon="5.40942">
        <ele>216.5</ele>
        <time>2019-04-02T07:49:21Z</time>
      </trkpt>
      <trkpt lat="47.50601" lon="5.40947">
        <ele>216.5</ele>
        <time>2019-04-02T07:49:29Z</time>
      </trkpt>
      <trkpt lat="47.50609" lon="5.40953">
        <ele>216.6</ele>
        <time>2019-04-02T07:49:38Z</time>
      </trkpt>
      <trkpt lat="47.50618" lon="5.40959">
        <ele>216.6</ele>
        <time>2019-04-02T07:49:47Z</time>
      </trkpt>
      <trkpt lat="47.50626" lon="5.40964">
        <ele>216.6</ele>
        <time>2019-04-02T07:49:55Z</time>
      </trkpt>
      <trkpt lat="47.50635" lon="5.4097">
        <ele>216.7</ele>
        <time>2019-04-02T07:50:04Z</time>
      </trkpt>
      <trkpt lat="47.50643" lon="5.40977">
        <ele>216.7</ele>
        <time>2019-04-02T07:50:12Z</time>
      </trkpt>
      <trkpt lat="47.5065" lon="5.40987">
        <ele>216.8</ele>
        <time>2019-04-02T07:50:21Z</time>
      </trkpt>
      <trkpt lat="47.50655" lon="5.40999">
        <ele>217.1</ele>
        <time>2019-04-02T07:50:29Z</time>
      </trkpt>
      <trkpt lat="47.50659" lon="5.41011">
        <ele>217.4</ele>
        <time>2019-04-02T07:50:36Z</time>
      </trkpt>
      <trkpt lat="47.50663" lon="5.41023">
        <ele>217.8</ele>
        <time>2019-04-02T07:50:44Z</time>
      </trkpt>
      <trkpt lat="47.50668" lon="5.41036">
        <ele>218.2</ele>
        <time>2019-04-02T07:50:52Z</time>
      </trkpt>
      <trkpt lat="47.50672" lon="5.41048">
        <ele>218.4</ele>
        <time>2019-04-02T07:51:01Z</time>
      </trkpt>
      <trkpt lat="47.50676" lon="5.41061">
        <ele>218.6</ele>
        <time>2019-04-02T07:51:09Z</time>
      </trkpt>
      <trkpt lat="47.50681" lon="5.41074">
        <ele>218.7</ele>
        <time>2019-04-02T07:51:18Z</time>
      </trkpt>
      <trkpt lat="47.50685" lon="5.41086">
        <ele>218.7</ele>
        <time>2019-04-02T07:51:26Z</time>
      </trkpt>
      <trkpt lat="47.50692" lon="5.41096">
        <ele>218.3</ele>
        <time>2019-04-02T07:51:35Z</time>
      </trkpt>
      <trkpt lat="47.50699" lon="5.41104">
        <ele>217.9</ele>
        <time>2019-04-02T07:51:43Z</time>
      </trkpt>
      <trkpt lat="47.50706" lon="5.41113">
        <ele>217.5</ele>
        <time>2019-04-02T07:51:51Z</time>
      </trkpt>
      <trkpt lat="47.50715" lon="5.41119">
        <ele>217</ele>
        <time>2019-04-02T07:51:59Z</time>
      </trkpt>
      <trkpt lat="47.50722" lon="5.41127">
        <ele>216.7</ele>
        <time>2019-04-02T07:52:07Z</time>
      </trkpt>
      <trkpt lat="47.50731" lon="5.41132">
        <ele>216.3</ele>
        <time>2019-04-02T07:53:26Z</time>
      </trkpt>
      <trkpt lat="47.50739" lon="5.4114">
        <ele>216</ele>
        <time>2019-04-02T07:53:35Z</time>
      </trkpt>
      <trkpt lat="47.50746" lon="5.41148">
        <ele>215.8</ele>
        <time>2019-04-02T07:53:46Z</time>
      </trkpt>
      <trkpt lat="47.50755" lon="5.41154">
        <ele>215.7</ele>
        <time>2019-04-02T07:53:56Z</time>
      </trkpt>
      <trkpt lat="47.50763" lon="5.41161">
        <ele>215.9</ele>
        <time>2019-04-02T07:54:05Z</time>
      </trkpt>
      <trkpt lat="47.50772" lon="5.41169">
        <ele>216.1</ele>
        <time>2019-04-02T07:54:14Z</time>
      </trkpt>
      <trkpt lat="47.5078" lon="5.41177">
        <ele>216.6</ele>
        <time>2019-04-02T07:54:23Z</time>
      </trkpt>
      <trkpt lat="47.50789" lon="5.41185">
        <ele>217</ele>
        <time>2019-04-02T07:54:30Z</time>
      </trkpt>
      <trkpt lat="47.50797" lon="5.41192">
        <ele>217.3</ele>
        <time>2019-04-02T07:54:38Z</time>
      </trkpt>
      <trkpt lat="47.50805" lon="5.41201">
        <ele>217.6</ele>
        <time>2019-04-02T07:54:47Z</time>
      </trkpt>
      <trkpt lat="47.50813" lon="5.41209">
        <ele>217.9</ele>
        <time>2019-04-02T07:54:56Z</time>
      </trkpt>
      <trkpt lat="47.50822" lon="5.41215">
        <ele>218</ele>
        <time>2019-04-02T07:55:04Z</time>
      </trkpt>
      <trkpt lat="47.50829" lon="5.41223">
        <ele>218.1</ele>
        <time>2019-04-02T07:55:12Z</time>
      </trkpt>
      <trkpt lat="47.50837" lon="5.41232">
        <ele>218.2</ele>
        <time>2019-04-02T07:55:20Z</time>
      </trkpt>
      <trkpt lat="47.50844" lon="5.41241">
        <ele>218.2</ele>
        <time>2019-04-02T07:55:29Z</time>
      </trkpt>
      <trkpt lat="47.50852" lon="5.41249">
        <ele>218</ele>
        <time>2019-04-02T07:55:38Z</time>
      </trkpt>
      <trkpt lat="47.5086" lon="5.41257">
        <ele>217.8</ele>
        <time>2019-04-02T07:55:46Z</time>
      </trkpt>
      <trkpt lat="47.50867" lon="5.41265">
        <ele>217.5</ele>
        <time>2019-04-02T07:55:55Z</time>
      </trkpt>
      <trkpt lat="47.50875" lon="5.41274">
        <ele>217.3</ele>
        <time>2019-04-02T07:56:04Z</time>
      </trkpt>
      <trkpt lat="47.50882" lon="5.41283">
        <ele>217</ele>
        <time>2019-04-02T07:56:13Z</time>
      </trkpt>
      <trkpt lat="47.5089" lon="5.41293">
        <ele>216.8</ele>
        <time>2019-04-02T07:56:23Z</time>
      </trkpt>
      <trkpt lat="47.50898" lon="5.41299">
        <ele>216.5</ele>
        <time>2019-04-02T07:56:34Z</time>
      </trkpt>
      <trkpt lat="47.50906" lon="5.41308">
        <ele>216.2</ele>
        <time>2019-04-02T07:56:41Z</time>
      </trkpt>
      <trkpt lat="47.50914" lon="5.41316">
        <ele>215.9</ele>
        <time>2019-04-02T07:56:49Z</time>
      </trkpt>
      <trkpt lat="47.50922" lon="5.41325">
        <ele>215.8</ele>
        <time>2019-04-02T07:56:57Z</time>
      </trkpt>
      <trkpt lat="47.5093" lon="5.41334">
        <ele>215.7</ele>
        <time>2019-04-02T07:57:05Z</time>
      </trkpt>
      <trkpt lat="47.50936" lon="5.41343">
        <ele>215.8</ele>
        <time>2019-04-02T07:57:12Z</time>
      </trkpt>
      <trkpt lat="47.50944" lon="5.41352">
        <ele>215.9</ele>
        <time>2019-04-02T07:57:19Z</time>
      </trkpt>
      <trkpt lat="47.50951" lon="5.41361">
        <ele>215.9</ele>
        <time>2019-04-02T07:57:28Z</time>
      </trkpt>
      <trkpt lat="47.50959" lon="5.41371">
        <ele>215.9</ele>
        <time>2019-04-02T07:57:37Z</time>
      </trkpt>
      <trkpt lat="47.50966" lon="5.41381">
        <ele>215.8</ele>
        <time>2019-04-02T07:57:46Z</time>
      </trkpt>
      <trkpt lat="47.50973" lon="5.4139">
        <ele>215.8</ele>
        <time>2019-04-02T07:57:55Z</time>
      </trkpt>
      <trkpt lat="47.5098" lon="5.414">
        <ele>215.7</ele>
        <time>2019-04-02T07:58:04Z</time>
      </trkpt>
      <trkpt lat="47.50986" lon="5.41411">
        <ele>215.6</ele>
        <time>2019-04-02T07:58:12Z</time>
      </trkpt>
      <trkpt lat="47.50992" lon="5.41422">
        <ele>215.7</ele>
        <time>2019-04-02T07:58:20Z</time>
      </trkpt>
      <trkpt lat="47.50997" lon="5.41433">
        <ele>216.2</ele>
        <time>2019-04-02T07:58:28Z</time>
      </trkpt>
      <trkpt lat="47.51002" lon="5.41446">
        <ele>217</ele>
        <time>2019-04-02T07:58:36Z</time>
      </trkpt>
      <trkpt lat="47.51007" lon="5.41458">
        <ele>217.9</ele>
        <time>2019-04-02T07:58:43Z</time>
      </trkpt>
      <trkpt lat="47.51012" lon="5.41469">
        <ele>218.6</ele>
        <time>2019-04-02T07:58:50Z</time>
      </trkpt>
      <trkpt lat="47.51017" lon="5.4148">
        <ele>219.3</ele>
        <time>2019-04-02T07:58:58Z</time>
      </trkpt>
      <trkpt lat="47.51024" lon="5.41491">
        <ele>219.9</ele>
        <time>2019-04-02T07:59:06Z</time>
      </trkpt>
      <trkpt lat="47.51031" lon="5.41499">
        <ele>220.2</ele>
        <time>2019-04-02T07:59:14Z</time>
      </trkpt>
      <trkpt lat="47.5104" lon="5.41505">
        <ele>220.4</ele>
        <time>2019-04-02T07:59:22Z</time>
      </trkpt>
      <trkpt lat="47.51049" lon="5.41509">
        <ele>220.5</ele>
        <time>2019-04-02T07:59:30Z</time>
      </trkpt>
      <trkpt lat="47.51059" lon="5.41512">
        <ele>220.4</ele>
        <time>2019-04-02T07:59:38Z</time>
      </trkpt>
      <trkpt lat="47.51068" lon="5.41515">
        <ele>220.3</ele>
        <time>2019-04-02T07:59:47Z</time>
      </trkpt>
      <trkpt lat="47.51077" lon="5.41518">
        <ele>220.3</ele>
        <time>2019-04-02T07:59:56Z</time>
      </trkpt>
      <trkpt lat="47.51087" lon="5.41519">
        <ele>220</ele>
        <time>2019-04-02T08:00:03Z</time>
      </trkpt>
      <trkpt lat="47.51096" lon="5.41522">
        <ele>220</ele>
        <time>2019-04-02T08:00:10Z</time>
      </trkpt>
      <trkpt lat="47.51106" lon="5.41525">
        <ele>220</ele>
        <time>2019-04-02T08:00:17Z</time>
      </trkpt>
      <trkpt lat="47.51115" lon="5.41527">
        <ele>219.9</ele>
        <time>2019-04-02T08:00:25Z</time>
      </trkpt>
      <trkpt lat="47.51125" lon="5.41527">
        <ele>219.7</ele>
        <time>2019-04-02T08:00:33Z</time>
      </trkpt>
      <trkpt lat="47.51134" lon="5.4153">
        <ele>219.5</ele>
        <time>2019-04-02T08:00:41Z</time>
      </trkpt>
      <trkpt lat="47.51143" lon="5.41533">
        <ele>219.4</ele>
        <time>2019-04-02T08:00:48Z</time>
      </trkpt>
      <trkpt lat="47.51152" lon="5.41537">
        <ele>219.3</ele>
        <time>2019-04-02T08:00:57Z</time>
      </trkpt>
      <trkpt lat="47.51161" lon="5.41541">
        <ele>219.1</ele>
        <time>2019-04-02T08:01:07Z</time>
      </trkpt>
      <trkpt lat="47.51171" lon="5.41545">
        <ele>219</ele>
        <time>2019-04-02T08:01:16Z</time>
      </trkpt>
      <trkpt lat="47.51181" lon="5.41548">
        <ele>218.7</ele>
        <time>2019-04-02T08:01:22Z</time>
      </trkpt>
      <trkpt lat="47.51191" lon="5.41552">
        <ele>218.5</ele>
        <time>2019-04-02T08:01:29Z</time>
      </trkpt>
      <trkpt lat="47.51199" lon="5.41557">
        <ele>218.3</ele>
        <time>2019-04-02T08:01:36Z</time>
      </trkpt>
      <trkpt lat="47.51208" lon="5.41563">
        <ele>218.1</ele>
        <time>2019-04-02T08:01:43Z</time>
      </trkpt>
      <trkpt lat="47.51217" lon="5.41569">
        <ele>217.9</ele>
        <time>2019-04-02T08:01:50Z</time>
      </trkpt>
      <trkpt lat="47.51225" lon="5.41575">
        <ele>217.8</ele>
        <time>2019-04-02T08:01:57Z</time>
      </trkpt>
      <trkpt lat="47.51234" lon="5.41582">
        <ele>217.6</ele>
        <time>2019-04-02T08:02:06Z</time>
      </trkpt>
      <trkpt lat="47.51243" lon="5.41587">
        <ele>217.3</ele>
        <time>2019-04-02T08:02:14Z</time>
      </trkpt>
      <trkpt lat="47.51252" lon="5.41589">
        <ele>217</ele>
        <time>2019-04-02T08:02:21Z</time>
      </trkpt>
      <trkpt lat="47.51261" lon="5.41593">
        <ele>216.8</ele>
        <time>2019-04-02T08:02:29Z</time>
      </trkpt>
      <trkpt lat="47.5127" lon="5.41597">
        <ele>216.6</ele>
        <time>2019-04-02T08:02:37Z</time>
      </trkpt>
      <trkpt lat="47.51279" lon="5.41603">
        <ele>216.4</ele>
        <time>2019-04-02T08:02:44Z</time>
      </trkpt>
      <trkpt lat="47.51287" lon="5.41609">
        <ele>216.3</ele>
        <time>2019-04-02T08:02:51Z</time>
      </trkpt>
      <trkpt lat="47.51295" lon="5.41616">
        <ele>216.1</ele>
        <time>2019-04-02T08:02:59Z</time>
      </trkpt>
      <trkpt lat="47.51304" lon="5.41623">
        <ele>216</ele>
        <time>2019-04-02T08:03:08Z</time>
      </trkpt>
      <trkpt lat="47.51313" lon="5.41629">
        <ele>215.9</ele>
        <time>2019-04-02T08:03:17Z</time>
      </trkpt>
      <trkpt lat="47.51321" lon="5.41636">
        <ele>215.8</ele>
        <time>2019-04-02T08:03:25Z</time>
      </trkpt>
      <trkpt lat="47.5133" lon="5.41643">
        <ele>215.8</ele>
        <time>2019-04-02T08:03:34Z</time>
      </trkpt>
      <trkpt lat="47.51339" lon="5.41648">
        <ele>215.7</ele>
        <time>2019-04-02T08:03:42Z</time>
      </trkpt>
      <trkpt lat="47.51347" lon="5.41654">
        <ele>215.8</ele>
        <time>2019-04-02T08:03:50Z</time>
      </trkpt>
      <trkpt lat="47.51356" lon="5.41658">
        <ele>215.7</ele>
        <time>2019-04-02T08:03:58Z</time>
      </trkpt>
      <trkpt lat="47.51365" lon="5.41662">
        <ele>215.6</ele>
        <time>2019-04-02T08:04:06Z</time>
      </trkpt>
      <trkpt lat="47.51373" lon="5.41668">
        <ele>215.6</ele>
        <time>2019-04-02T08:04:14Z</time>
      </trkpt>
      <trkpt lat="47.51382" lon="5.41673">
        <ele>215.6</ele>
        <time>2019-04-02T08:04:22Z</time>
      </trkpt>
      <trkpt lat="47.51391" lon="5.41679">
        <ele>215.5</ele>
        <time>2019-04-02T08:04:30Z</time>
      </trkpt>
      <trkpt lat="47.514" lon="5.41684">
        <ele>215.5</ele>
        <time>2019-04-02T08:04:38Z</time>
      </trkpt>
      <trkpt lat="47.51409" lon="5.4169">
        <ele>215.4</ele>
        <time>2019-04-02T08:04:47Z</time>
      </trkpt>
      <trkpt lat="47.51417" lon="5.41696">
        <ele>215.3</ele>
        <time>2019-04-02T08:04:54Z</time>
      </trkpt>
      <trkpt lat="47.51426" lon="5.41702">
        <ele>215.5</ele>
        <time>2019-04-02T08:05:02Z</time>
      </trkpt>
      <trkpt lat="47.51435" lon="5.41708">
        <ele>215.6</ele>
        <time>2019-04-02T08:05:10Z</time>
      </trkpt>
      <trkpt lat="47.51444" lon="5.41711">
        <ele>215.7</ele>
        <time>2019-04-02T08:05:18Z</time>
      </trkpt>
      <trkpt lat="47.51452" lon="5.41716">
        <ele>215.8</ele>
        <time>2019-04-02T08:05:26Z</time>
      </trkpt>
      <trkpt lat="47.51461" lon="5.41721">
        <ele>216</ele>
        <time>2019-04-02T08:05:34Z</time>
      </trkpt>
      <trkpt lat="47.5147" lon="5.41726">
        <ele>216.2</ele>
        <time>2019-04-02T08:05:43Z</time>
      </trkpt>
      <trkpt lat="47.51478" lon="5.41734">
        <ele>216.4</ele>
        <time>2019-04-02T08:05:51Z</time>
      </trkpt>
      <trkpt lat="47.51485" lon="5.41743">
        <ele>216.6</ele>
        <time>2019-04-02T08:05:59Z</time>
      </trkpt>
      <trkpt lat="47.51492" lon="5.41751">
        <ele>216.9</ele>
        <time>2019-04-02T08:06:08Z</time>
      </trkpt>
      <trkpt lat="47.51499" lon="5.4176">
        <ele>217.1</ele>
        <time>2019-04-02T08:06:16Z</time>
      </trkpt>
      <trkpt lat="47.51507" lon="5.4177">
        <ele>217.3</ele>
        <time>2019-04-02T08:06:25Z</time>
      </trkpt>
      <trkpt lat="47.51514" lon="5.41779">
        <ele>217.5</ele>
        <time>2019-04-02T08:06:33Z</time>
      </trkpt>
      <trkpt lat="47.5152" lon="5.4179">
        <ele>217.7</ele>
        <time>2019-04-02T08:06:41Z</time>
      </trkpt>
      <trkpt lat="47.51526" lon="5.418">
        <ele>217.9</ele>
        <time>2019-04-02T08:06:48Z</time>
      </trkpt>
      <trkpt lat="47.51532" lon="5.41812">
        <ele>218.3</ele>
        <time>2019-04-02T08:06:56Z</time>
      </trkpt>
      <trkpt lat="47.51538" lon="5.41823">
        <ele>218.7</ele>
        <time>2019-04-02T08:07:04Z</time>
      </trkpt>
      <trkpt lat="47.51545" lon="5.41833">
        <ele>219</ele>
        <time>2019-04-02T08:07:13Z</time>
      </trkpt>
      <trkpt lat="47.5155" lon="5.41844">
        <ele>219.5</ele>
        <time>2019-04-02T08:07:21Z</time>
      </trkpt>
      <trkpt lat="47.51556" lon="5.41856">
        <ele>220</ele>
        <time>2019-04-02T08:07:30Z</time>
      </trkpt>
      <trkpt lat="47.51562" lon="5.41866">
        <ele>220.5</ele>
        <time>2019-04-02T08:07:39Z</time>
      </trkpt>
      <trkpt lat="47.51563" lon="5.41879">
        <ele>221</ele>
        <time>2019-04-02T08:10:23Z</time>
      </trkpt>
      <trkpt lat="47.51572" lon="5.41885">
        <ele>221.5</ele>
        <time>2019-04-02T08:10:33Z</time>
      </trkpt>
      <trkpt lat="47.51578" lon="5.41895">
        <ele>222</ele>
        <time>2019-04-02T08:10:47Z</time>
      </trkpt>
      <trkpt lat="47.51583" lon="5.41907">
        <ele>222.6</ele>
        <time>2019-04-02T08:11:01Z</time>
      </trkpt>
      <trkpt lat="47.51589" lon="5.4192">
        <ele>222.8</ele>
        <time>2019-04-02T08:11:11Z</time>
      </trkpt>
      <trkpt lat="47.51595" lon="5.41931">
        <ele>222.5</ele>
        <time>2019-04-02T08:11:19Z</time>
      </trkpt>
      <trkpt lat="47.51601" lon="5.41942">
        <ele>222.3</ele>
        <time>2019-04-02T08:11:31Z</time>
      </trkpt>
      <trkpt lat="47.51605" lon="5.41955">
        <ele>222.1</ele>
        <time>2019-04-02T08:11:46Z</time>
      </trkpt>
      <trkpt lat="47.5161" lon="5.41967">
        <ele>222</ele>
        <time>2019-04-02T08:11:59Z</time>
      </trkpt>
      <trkpt lat="47.51614" lon="5.4198">
        <ele>222</ele>
        <time>2019-04-02T08:12:11Z</time>
      </trkpt>
      <trkpt lat="47.51618" lon="5.41992">
        <ele>222</ele>
        <time>2019-04-02T08:12:17Z</time>
      </trkpt>
      <trkpt lat="47.51625" lon="5.42002">
        <ele>222</ele>
        <time>2019-04-02T08:12:26Z</time>
      </trkpt>
      <trkpt lat="47.51633" lon="5.42013">
        <ele>222.2</ele>
        <time>2019-04-02T08:12:35Z</time>
      </trkpt>
      <trkpt lat="47.5164" lon="5.42022">
        <ele>222.4</ele>
        <time>2019-04-02T08:12:45Z</time>
      </trkpt>
      <trkpt lat="47.51647" lon="5.4203">
        <ele>222.6</ele>
        <time>2019-04-02T08:12:53Z</time>
      </trkpt>
      <trkpt lat="47.51653" lon="5.42042">
        <ele>222.9</ele>
        <time>2019-04-02T08:13:02Z</time>
      </trkpt>
      <trkpt lat="47.51658" lon="5.42053">
        <ele>223.2</ele>
        <time>2019-04-02T08:13:10Z</time>
      </trkpt>
      <trkpt lat="47.51666" lon="5.42062">
        <ele>223.4</ele>
        <time>2019-04-02T08:13:19Z</time>
      </trkpt>
      <trkpt lat="47.51673" lon="5.4207">
        <ele>223.4</ele>
        <time>2019-04-02T08:13:27Z</time>
      </trkpt>
      <trkpt lat="47.51679" lon="5.42081">
        <ele>223.3</ele>
        <time>2019-04-02T08:13:36Z</time>
      </trkpt>
      <trkpt lat="47.51686" lon="5.42091">
        <ele>223.2</ele>
        <time>2019-04-02T08:13:44Z</time>
      </trkpt>
      <trkpt lat="47.51692" lon="5.42101">
        <ele>223.1</ele>
        <time>2019-04-02T08:13:52Z</time>
      </trkpt>
      <trkpt lat="47.51699" lon="5.42112">
        <ele>223</ele>
        <time>2019-04-02T08:13:59Z</time>
      </trkpt>
      <trkpt lat="47.51706" lon="5.42121">
        <ele>223</ele>
        <time>2019-04-02T08:14:07Z</time>
      </trkpt>
      <trkpt lat="47.51712" lon="5.4213">
        <ele>223</ele>
        <time>2019-04-02T08:14:15Z</time>
      </trkpt>
      <trkpt lat="47.51719" lon="5.4214">
        <ele>223</ele>
        <time>2019-04-02T08:14:23Z</time>
      </trkpt>
      <trkpt lat="47.51725" lon="5.4215">
        <ele>223.1</ele>
        <time>2019-04-02T08:14:32Z</time>
      </trkpt>
      <trkpt lat="47.51729" lon="5.42164">
        <ele>223.4</ele>
        <time>2019-04-02T08:14:41Z</time>
      </trkpt>
      <trkpt lat="47.5173" lon="5.42177">
        <ele>223.4</ele>
        <time>2019-04-02T08:14:49Z</time>
      </trkpt>
      <trkpt lat="47.5173" lon="5.42192">
        <ele>223.3</ele>
        <time>2019-04-02T08:14:57Z</time>
      </trkpt>
      <trkpt lat="47.51732" lon="5.42206">
        <ele>223.1</ele>
        <time>2019-04-02T08:15:05Z</time>
      </trkpt>
      <trkpt lat="47.51734" lon="5.4222">
        <ele>222.9</ele>
        <time>2019-04-02T08:15:14Z</time>
      </trkpt>
      <trkpt lat="47.51739" lon="5.42232">
        <ele>222.6</ele>
        <time>2019-04-02T08:15:23Z</time>
      </trkpt>
      <trkpt lat="47.51744" lon="5.42244">
        <ele>222.3</ele>
        <time>2019-04-02T08:15:32Z</time>
      </trkpt>
      <trkpt lat="47.51748" lon="5.42257">
        <ele>222</ele>
        <time>2019-04-02T08:15:41Z</time>
      </trkpt>
      <trkpt lat="47.51748" lon="5.42272">
        <ele>221.8</ele>
        <time>2019-04-02T08:16:02Z</time>
      </trkpt>
      <trkpt lat="47.51744" lon="5.42285">
        <ele>221.8</ele>
        <time>2019-04-02T08:16:13Z</time>
      </trkpt>
      <trkpt lat="47.5174" lon="5.42297">
        <ele>221.9</ele>
        <time>2019-04-02T08:16:25Z</time>
      </trkpt>
      <trkpt lat="47.51736" lon="5.42311">
        <ele>221.9</ele>
        <time>2019-04-02T08:16:33Z</time>
      </trkpt>
      <trkpt lat="47.51731" lon="5.42322">
        <ele>222</ele>
        <time>2019-04-02T08:16:41Z</time>
      </trkpt>
      <trkpt lat="47.51725" lon="5.42335">
        <ele>222.2</ele>
        <time>2019-04-02T08:16:51Z</time>
      </trkpt>
      <trkpt lat="47.5172" lon="5.42347">
        <ele>222.4</ele>
        <time>2019-04-02T08:16:58Z</time>
      </trkpt>
      <trkpt lat="47.51715" lon="5.42359">
        <ele>222.7</ele>
        <time>2019-04-02T08:17:05Z</time>
      </trkpt>
      <trkpt lat="47.51712" lon="5.42372">
        <ele>222.8</ele>
        <time>2019-04-02T08:17:13Z</time>
      </trkpt>
      <trkpt lat="47.51708" lon="5.42385">
        <ele>223</ele>
        <time>2019-04-02T08:17:21Z</time>
      </trkpt>
      <trkpt lat="47.51704" lon="5.42398">
        <ele>223.2</ele>
        <time>2019-04-02T08:17:29Z</time>
      </trkpt>
      <trkpt lat="47.51701" lon="5.42411">
        <ele>223.4</ele>
        <time>2019-04-02T08:17:37Z</time>
      </trkpt>
      <trkpt lat="47.51697" lon="5.42424">
        <ele>223.7</ele>
        <time>2019-04-02T08:17:48Z</time>
      </trkpt>
      <trkpt lat="47.51706" lon="5.42417">
        <ele>223.2</ele>
        <time>2019-04-02T08:18:53Z</time>
      </trkpt>
      <trkpt lat="47.51715" lon="5.42419">
        <ele>222.7</ele>
        <time>2019-04-02T08:19:03Z</time>
      </trkpt>
      <trkpt lat="47.51723" lon="5.42426">
        <ele>222.5</ele>
        <time>2019-04-02T08:19:12Z</time>
      </trkpt>
      <trkpt lat="47.51731" lon="5.42432">
        <ele>222.3</ele>
        <time>2019-04-02T08:19:20Z</time>
      </trkpt>
      <trkpt lat="47.51737" lon="5.42444">
        <ele>222.2</ele>
        <time>2019-04-02T08:19:28Z</time>
      </trkpt>
      <trkpt lat="47.51745" lon="5.42452">
        <ele>222.1</ele>
        <time>2019-04-02T08:19:35Z</time>
      </trkpt>
      <trkpt lat="47.51753" lon="5.4246">
        <ele>221.9</ele>
        <time>2019-04-02T08:19:46Z</time>
      </trkpt>
      <trkpt lat="47.51761" lon="5.42469">
        <ele>221.9</ele>
        <time>2019-04-02T08:19:54Z</time>
      </trkpt>
      <trkpt lat="47.51769" lon="5.42477">
        <ele>221.8</ele>
        <time>2019-04-02T08:20:04Z</time>
      </trkpt>
      <trkpt lat="47.51779" lon="5.42483">
        <ele>221.6</ele>
        <time>2019-04-02T08:20:13Z</time>
      </trkpt>
      <trkpt lat="47.51787" lon="5.42491">
        <ele>221.4</ele>
        <time>2019-04-02T08:20:21Z</time>
      </trkpt>
      <trkpt lat="47.51796" lon="5.42499">
        <ele>221.3</ele>
        <time>2019-04-02T08:20:29Z</time>
      </trkpt>
      <trkpt lat="47.51805" lon="5.42504">
        <ele>221.2</ele>
        <time>2019-04-02T08:20:34Z</time>
      </trkpt>
      <trkpt lat="47.51814" lon="5.42507">
        <ele>221</ele>
        <time>2019-04-02T08:20:40Z</time>
      </trkpt>
      <trkpt lat="47.51823" lon="5.42512">
        <ele>220.9</ele>
        <time>2019-04-02T08:20:52Z</time>
      </trkpt>
      <trkpt lat="47.51831" lon="5.42519">
        <ele>221</ele>
        <time>2019-04-02T08:21:43Z</time>
      </trkpt>
      <trkpt lat="47.5184" lon="5.42517">
        <ele>220.9</ele>
        <time>2019-04-02T08:21:58Z</time>
      </trkpt>
      <trkpt lat="47.51848" lon="5.42511">
        <ele>220.7</ele>
        <time>2019-04-02T08:22:16Z</time>
      </trkpt>
      <trkpt lat="47.51857" lon="5.42509">
        <ele>220.7</ele>
        <time>2019-04-02T08:22:30Z</time>
      </trkpt>
      <trkpt lat="47.51867" lon="5.42512">
        <ele>221.1</ele>
        <time>2019-04-02T08:22:37Z</time>
      </trkpt>
      <trkpt lat="47.51876" lon="5.42513">
        <ele>221.2</ele>
        <time>2019-04-02T08:22:44Z</time>
      </trkpt>
      <trkpt lat="47.51885" lon="5.42509">
        <ele>221.2</ele>
        <time>2019-04-02T08:22:52Z</time>
      </trkpt>
      <trkpt lat="47.51894" lon="5.42514">
        <ele>221.6</ele>
        <time>2019-04-02T08:22:57Z</time>
      </trkpt>
      <trkpt lat="47.51903" lon="5.42514">
        <ele>221.7</ele>
        <time>2019-04-02T08:23:04Z</time>
      </trkpt>
      <trkpt lat="47.51913" lon="5.42519">
        <ele>222.2</ele>
        <time>2019-04-02T08:23:11Z</time>
      </trkpt>
      <trkpt lat="47.51922" lon="5.42525">
        <ele>222.6</ele>
        <time>2019-04-02T08:23:19Z</time>
      </trkpt>
      <trkpt lat="47.51927" lon="5.42537">
        <ele>223.3</ele>
        <time>2019-04-02T08:23:26Z</time>
      </trkpt>
      <trkpt lat="47.5193" lon="5.42551">
        <ele>224.2</ele>
        <time>2019-04-02T08:23:34Z</time>
      </trkpt>
      <trkpt lat="47.51927" lon="5.42564">
        <ele>225.2</ele>
        <time>2019-04-02T08:23:42Z</time>
      </trkpt>
      <trkpt lat="47.51924" lon="5.42578">
        <ele>226.2</ele>
        <time>2019-04-02T08:23:52Z</time>
      </trkpt>
      <trkpt lat="47.5192" lon="5.42591">
        <ele>226.8</ele>
        <time>2019-04-02T08:24:02Z</time>
      </trkpt>
      <trkpt lat="47.51916" lon="5.42605">
        <ele>226.7</ele>
        <time>2019-04-02T08:24:11Z</time>
      </trkpt>
      <trkpt lat="47.51911" lon="5.42616">
        <ele>226.5</ele>
        <time>2019-04-02T08:24:20Z</time>
      </trkpt>
      <trkpt lat="47.51905" lon="5.42628">
        <ele>226.4</ele>
        <time>2019-04-02T08:24:29Z</time>
      </trkpt>
      <trkpt lat="47.51901" lon="5.42639">
        <ele>226.3</ele>
        <time>2019-04-02T08:24:37Z</time>
      </trkpt>
      <trkpt lat="47.51896" lon="5.42651">
        <ele>226.2</ele>
        <time>2019-04-02T08:24:45Z</time>
      </trkpt>
      <trkpt lat="47.51892" lon="5.42664">
        <ele>226.3</ele>
        <time>2019-04-02T08:24:54Z</time>
      </trkpt>
      <trkpt lat="47.51887" lon="5.42676">
        <ele>227.1</ele>
        <time>2019-04-02T08:25:02Z</time>
      </trkpt>
      <trkpt lat="47.51884" lon="5.42688">
        <ele>228.1</ele>
        <time>2019-04-02T08:25:11Z</time>
      </trkpt>
      <trkpt lat="47.51877" lon="5.42699">
        <ele>229</ele>
        <time>2019-04-02T08:25:23Z</time>
      </trkpt>
      <trkpt lat="47.51873" lon="5.42712">
        <ele>229.9</ele>
        <time>2019-04-02T08:25:46Z</time>
      </trkpt>
      <trkpt lat="47.51869" lon="5.42724">
        <ele>230.9</ele>
        <time>2019-04-02T08:26:10Z</time>
      </trkpt>
      <trkpt lat="47.51872" lon="5.42738">
        <ele>231.9</ele>
        <time>2019-04-02T08:26:36Z</time>
      </trkpt>
      <trkpt lat="47.51874" lon="5.42752">
        <ele>233</ele>
        <time>2019-04-02T08:26:47Z</time>
      </trkpt>
      <trkpt lat="47.5188" lon="5.42763">
        <ele>233.4</ele>
        <time>2019-04-02T08:26:58Z</time>
      </trkpt>
      <trkpt lat="47.51886" lon="5.42774">
        <ele>233.8</ele>
        <time>2019-04-02T08:27:10Z</time>
      </trkpt>
      <trkpt lat="47.51891" lon="5.42786">
        <ele>234.2</ele>
        <time>2019-04-02T08:27:17Z</time>
      </trkpt>
      <trkpt lat="47.51899" lon="5.42796">
        <ele>234.6</ele>
        <time>2019-04-02T08:27:26Z</time>
      </trkpt>
      <trkpt lat="47.51907" lon="5.42803">
        <ele>235</ele>
        <time>2019-04-02T08:27:36Z</time>
      </trkpt>
      <trkpt lat="47.51916" lon="5.4281">
        <ele>235.4</ele>
        <time>2019-04-02T08:27:47Z</time>
      </trkpt>
      <trkpt lat="47.51924" lon="5.42815">
        <ele>235.2</ele>
        <time>2019-04-02T08:27:56Z</time>
      </trkpt>
      <trkpt lat="47.51934" lon="5.42819">
        <ele>234.9</ele>
        <time>2019-04-02T08:28:04Z</time>
      </trkpt>
      <trkpt lat="47.51943" lon="5.4282">
        <ele>234.6</ele>
        <time>2019-04-02T08:28:11Z</time>
      </trkpt>
      <trkpt lat="47.51953" lon="5.42822">
        <ele>234.4</ele>
        <time>2019-04-02T08:28:18Z</time>
      </trkpt>
      <trkpt lat="47.51962" lon="5.42825">
        <ele>234.3</ele>
        <time>2019-04-02T08:28:26Z</time>
      </trkpt>
      <trkpt lat="47.51971" lon="5.4283">
        <ele>234.4</ele>
        <time>2019-04-02T08:28:34Z</time>
      </trkpt>
      <trkpt lat="47.51979" lon="5.42835">
        <ele>234.5</ele>
        <time>2019-04-02T08:28:41Z</time>
      </trkpt>
      <trkpt lat="47.51988" lon="5.42839">
        <ele>234.3</ele>
        <time>2019-04-02T08:28:48Z</time>
      </trkpt>
      <trkpt lat="47.51998" lon="5.42842">
        <ele>234.1</ele>
        <time>2019-04-02T08:28:56Z</time>
      </trkpt>
      <trkpt lat="47.52007" lon="5.42845">
        <ele>234.3</ele>
        <time>2019-04-02T08:29:04Z</time>
      </trkpt>
      <trkpt lat="47.52016" lon="5.42848">
        <ele>234.7</ele>
        <time>2019-04-02T08:29:12Z</time>
      </trkpt>
      <trkpt lat="47.52024" lon="5.42855">
        <ele>235.1</ele>
        <time>2019-04-02T08:29:28Z</time>
      </trkpt>
      <trkpt lat="47.52033" lon="5.42857">
        <ele>235.6</ele>
        <time>2019-04-02T08:29:37Z</time>
      </trkpt>
      <trkpt lat="47.52042" lon="5.42859">
        <ele>236</ele>
        <time>2019-04-02T08:29:46Z</time>
      </trkpt>
      <trkpt lat="47.52051" lon="5.42862">
        <ele>236.5</ele>
        <time>2019-04-02T08:29:55Z</time>
      </trkpt>
      <trkpt lat="47.52061" lon="5.42862">
        <ele>236.9</ele>
        <time>2019-04-02T08:30:05Z</time>
      </trkpt>
      <trkpt lat="47.5207" lon="5.42864">
        <ele>237.4</ele>
        <time>2019-04-02T08:30:14Z</time>
      </trkpt>
      <trkpt lat="47.5208" lon="5.42864">
        <ele>237.8</ele>
        <time>2019-04-02T08:30:22Z</time>
      </trkpt>
      <trkpt lat="47.5209" lon="5.42864">
        <ele>238</ele>
        <time>2019-04-02T08:30:31Z</time>
      </trkpt>
      <trkpt lat="47.52098" lon="5.42867">
        <ele>238</ele>
        <time>2019-04-02T08:30:39Z</time>
      </trkpt>
      <trkpt lat="47.52107" lon="5.42871">
        <ele>238.1</ele>
        <time>2019-04-02T08:30:47Z</time>
      </trkpt>
      <trkpt lat="47.52117" lon="5.42874">
        <ele>238.2</ele>
        <time>2019-04-02T08:30:56Z</time>
      </trkpt>
      <trkpt lat="47.52126" lon="5.42875">
        <ele>238.2</ele>
        <time>2019-04-02T08:31:04Z</time>
      </trkpt>
      <trkpt lat="47.52135" lon="5.42877">
        <ele>238.3</ele>
        <time>2019-04-02T08:31:12Z</time>
      </trkpt>
      <trkpt lat="47.52144" lon="5.4288">
        <ele>238.5</ele>
        <time>2019-04-02T08:31:20Z</time>
      </trkpt>
      <trkpt lat="47.52153" lon="5.42886">
        <ele>238.7</ele>
        <time>2019-04-02T08:31:26Z</time>
      </trkpt>
      <trkpt lat="47.52163" lon="5.42886">
        <ele>238.8</ele>
        <time>2019-04-02T08:31:34Z</time>
      </trkpt>
      <trkpt lat="47.52171" lon="5.42895">
        <ele>239.4</ele>
        <time>2019-04-02T08:31:42Z</time>
      </trkpt>
      <trkpt lat="47.52179" lon="5.429">
        <ele>240.1</ele>
        <time>2019-04-02T08:31:51Z</time>
      </trkpt>
      <trkpt lat="47.52188" lon="5.42907">
        <ele>240.8</ele>
        <time>2019-04-02T08:32:01Z</time>
      </trkpt>
      <trkpt lat="47.52197" lon="5.42907">
        <ele>241.3</ele>
        <time>2019-04-02T08:32:12Z</time>
      </trkpt>
      <trkpt lat="47.52205" lon="5.4291">
        <ele>241.9</ele>
        <time>2019-04-02T08:32:22Z</time>
      </trkpt>
      <trkpt lat="47.52215" lon="5.42912">
        <ele>242.6</ele>
        <time>2019-04-02T08:32:30Z</time>
      </trkpt>
      <trkpt lat="47.52225" lon="5.42914">
        <ele>243.3</ele>
        <time>2019-04-02T08:32:39Z</time>
      </trkpt>
      <trkpt lat="47.52234" lon="5.4292">
        <ele>244.2</ele>
        <time>2019-04-02T08:32:48Z</time>
      </trkpt>
      <trkpt lat="47.52243" lon="5.42922">
        <ele>245</ele>
        <time>2019-04-02T08:32:57Z</time>
      </trkpt>
      <trkpt lat="47.52253" lon="5.4292">
        <ele>245.2</ele>
        <time>2019-04-02T08:33:06Z</time>
      </trkpt>
      <trkpt lat="47.52262" lon="5.42918">
        <ele>245</ele>
        <time>2019-04-02T08:33:13Z</time>
      </trkpt>
      <trkpt lat="47.52271" lon="5.42917">
        <ele>244.7</ele>
        <time>2019-04-02T08:33:21Z</time>
      </trkpt>
      <trkpt lat="47.52281" lon="5.42917">
        <ele>244.6</ele>
        <time>2019-04-02T08:33:31Z</time>
      </trkpt>
      <trkpt lat="47.52291" lon="5.42918">
        <ele>244.5</ele>
        <time>2019-04-02T08:33:41Z</time>
      </trkpt>
      <trkpt lat="47.523" lon="5.4292">
        <ele>244.6</ele>
        <time>2019-04-02T08:34:01Z</time>
      </trkpt>
      <trkpt lat="47.52307" lon="5.42929">
        <ele>245.2</ele>
        <time>2019-04-02T08:34:37Z</time>
      </trkpt>
      <trkpt lat="47.52316" lon="5.4293">
        <ele>245.2</ele>
        <time>2019-04-02T08:34:48Z</time>
      </trkpt>
      <trkpt lat="47.52327" lon="5.42943">
        <ele>245.8</ele>
        <time>2019-04-02T08:35:52Z</time>
      </trkpt>
      <trkpt lat="47.52336" lon="5.42938">
        <ele>245.6</ele>
        <time>2019-04-02T08:44:42Z</time>
      </trkpt>
      <trkpt lat="47.52345" lon="5.42934">
        <ele>245.5</ele>
        <time>2019-04-02T08:44:54Z</time>
      </trkpt>
      <trkpt lat="47.52352" lon="5.42925">
        <ele>245</ele>
        <time>2019-04-02T08:45:03Z</time>
      </trkpt>
      <trkpt lat="47.52359" lon="5.42917">
        <ele>244.6</ele>
        <time>2019-04-02T08:45:14Z</time>
      </trkpt>
      <trkpt lat="47.52365" lon="5.42905">
        <ele>244.1</ele>
        <time>2019-04-02T08:45:24Z</time>
      </trkpt>
      <trkpt lat="47.52371" lon="5.42894">
        <ele>243.4</ele>
        <time>2019-04-02T08:45:32Z</time>
      </trkpt>
      <trkpt lat="47.52375" lon="5.4288">
        <ele>242.6</ele>
        <time>2019-04-02T08:45:39Z</time>
      </trkpt>
      <trkpt lat="47.52376" lon="5.42867">
        <ele>241.7</ele>
        <time>2019-04-02T08:45:46Z</time>
      </trkpt>
      <trkpt lat="47.52379" lon="5.42854">
        <ele>240.8</ele>
        <time>2019-04-02T08:45:54Z</time>
      </trkpt>
      <trkpt lat="47.52384" lon="5.42843">
        <ele>240.1</ele>
        <time>2019-04-02T08:46:03Z</time>
      </trkpt>
      <trkpt lat="47.52387" lon="5.42829">
        <ele>239</ele>
        <time>2019-04-02T08:46:13Z</time>
      </trkpt>
      <trkpt lat="47.52388" lon="5.42815">
        <ele>238.1</ele>
        <time>2019-04-02T08:46:21Z</time>
      </trkpt>
      <trkpt lat="47.52391" lon="5.42802">
        <ele>237.2</ele>
        <time>2019-04-02T08:46:32Z</time>
      </trkpt>
      <trkpt lat="47.52391" lon="5.42816">
        <ele>238.1</ele>
        <time>2019-04-02T08:48:43Z</time>
      </trkpt>
      <trkpt lat="47.52389" lon="5.42802">
        <ele>237.2</ele>
        <time>2019-04-02T08:49:08Z</time>
      </trkpt>
      <trkpt lat="47.52384" lon="5.42789">
        <ele>236.4</ele>
        <time>2019-04-02T08:49:18Z</time>
      </trkpt>
      <trkpt lat="47.5238" lon="5.42778">
        <ele>235.7</ele>
        <time>2019-04-02T08:49:26Z</time>
      </trkpt>
      <trkpt lat="47.52379" lon="5.42763">
        <ele>234.8</ele>
        <time>2019-04-02T08:49:34Z</time>
      </trkpt>
      <trkpt lat="47.52378" lon="5.4275">
        <ele>233.9</ele>
        <time>2019-04-02T08:49:42Z</time>
      </trkpt>
      <trkpt lat="47.52373" lon="5.42736">
        <ele>232.9</ele>
        <time>2019-04-02T08:49:54Z</time>
      </trkpt>
      <trkpt lat="47.52369" lon="5.42723">
        <ele>232</ele>
        <time>2019-04-02T08:50:04Z</time>
      </trkpt>
      <trkpt lat="47.52366" lon="5.4271">
        <ele>230.9</ele>
        <time>2019-04-02T08:50:13Z</time>
      </trkpt>
      <trkpt lat="47.52363" lon="5.42698">
        <ele>229.9</ele>
        <time>2019-04-02T08:50:22Z</time>
      </trkpt>
      <trkpt lat="47.5236" lon="5.42685">
        <ele>228.8</ele>
        <time>2019-04-02T08:50:33Z</time>
      </trkpt>
      <trkpt lat="47.52357" lon="5.42671">
        <ele>227.7</ele>
        <time>2019-04-02T08:50:43Z</time>
      </trkpt>
      <trkpt lat="47.52353" lon="5.42658">
        <ele>226.9</ele>
        <time>2019-04-02T08:50:53Z</time>
      </trkpt>
      <trkpt lat="47.5235" lon="5.42644">
        <ele>226.3</ele>
        <time>2019-04-02T08:51:03Z</time>
      </trkpt>
      <trkpt lat="47.52347" lon="5.42631">
        <ele>225.8</ele>
        <time>2019-04-02T08:51:12Z</time>
      </trkpt>
      <trkpt lat="47.52344" lon="5.42618">
        <ele>225.3</ele>
        <time>2019-04-02T08:51:20Z</time>
      </trkpt>
      <trkpt lat="47.52342" lon="5.42605">
        <ele>224.8</ele>
        <time>2019-04-02T08:51:29Z</time>
      </trkpt>
      <trkpt lat="47.52339" lon="5.42592">
        <ele>224.3</ele>
        <time>2019-04-02T08:51:38Z</time>
      </trkpt>
      <trkpt lat="47.52336" lon="5.42578">
        <ele>223.9</ele>
        <time>2019-04-02T08:51:46Z</time>
      </trkpt>
      <trkpt lat="47.52333" lon="5.42564">
        <ele>223.8</ele>
        <time>2019-04-02T08:51:55Z</time>
      </trkpt>
      <trkpt lat="47.52331" lon="5.4255">
        <ele>223.6</ele>
        <time>2019-04-02T08:52:04Z</time>
      </trkpt>
      <trkpt lat="47.5233" lon="5.42537">
        <ele>223.4</ele>
        <time>2019-04-02T08:52:13Z</time>
      </trkpt>
      <trkpt lat="47.52335" lon="5.42525">
        <ele>223.3</ele>
        <time>2019-04-02T08:52:37Z</time>
      </trkpt>
      <trkpt lat="47.52345" lon="5.42521">
        <ele>223.2</ele>
        <time>2019-04-02T08:52:46Z</time>
      </trkpt>
      <trkpt lat="47.52354" lon="5.42523">
        <ele>223.1</ele>
        <time>2019-04-02T08:52:57Z</time>
      </trkpt>
      <trkpt lat="47.52363" lon="5.42521">
        <ele>223</ele>
        <time>2019-04-02T08:53:07Z</time>
      </trkpt>
      <trkpt lat="47.52373" lon="5.42521">
        <ele>222.9</ele>
        <time>2019-04-02T08:53:21Z</time>
      </trkpt>
      <trkpt lat="47.52382" lon="5.42524">
        <ele>222.9</ele>
        <time>2019-04-02T08:53:32Z</time>
      </trkpt>
      <trkpt lat="47.52378" lon="5.42536">
        <ele>223.1</ele>
        <time>2019-04-02T08:55:09Z</time>
      </trkpt>
      <trkpt lat="47.52369" lon="5.42534">
        <ele>223.2</ele>
        <time>2019-04-02T08:55:21Z</time>
      </trkpt>
      <trkpt lat="47.5236" lon="5.42528">
        <ele>223.1</ele>
        <time>2019-04-02T08:55:34Z</time>
      </trkpt>
      <trkpt lat="47.52352" lon="5.42522">
        <ele>223.1</ele>
        <time>2019-04-02T08:55:44Z</time>
      </trkpt>
      <trkpt lat="47.52343" lon="5.42518">
        <ele>223.1</ele>
        <time>2019-04-02T08:55:55Z</time>
      </trkpt>
      <trkpt lat="47.52335" lon="5.42512">
        <ele>223.1</ele>
        <time>2019-04-02T08:56:05Z</time>
      </trkpt>
      <trkpt lat="47.52327" lon="5.42504">
        <ele>222.9</ele>
        <time>2019-04-02T08:56:13Z</time>
      </trkpt>
      <trkpt lat="47.52321" lon="5.42495">
        <ele>222.7</ele>
        <time>2019-04-02T08:56:27Z</time>
      </trkpt>
      <trkpt lat="47.52319" lon="5.42509">
        <ele>222.8</ele>
        <time>2019-04-02T08:57:11Z</time>
      </trkpt>
      <trkpt lat="47.52321" lon="5.42523">
        <ele>223</ele>
        <time>2019-04-02T08:57:21Z</time>
      </trkpt>
      <trkpt lat="47.52323" lon="5.42537">
        <ele>223.2</ele>
        <time>2019-04-02T08:57:29Z</time>
      </trkpt>
      <trkpt lat="47.52327" lon="5.42551">
        <ele>223.5</ele>
        <time>2019-04-02T08:57:37Z</time>
      </trkpt>
      <trkpt lat="47.52331" lon="5.42565">
        <ele>223.7</ele>
        <time>2019-04-02T08:57:43Z</time>
      </trkpt>
      <trkpt lat="47.52334" lon="5.42578">
        <ele>223.9</ele>
        <time>2019-04-02T08:57:51Z</time>
      </trkpt>
      <trkpt lat="47.52338" lon="5.42592">
        <ele>224.3</ele>
        <time>2019-04-02T08:58:00Z</time>
      </trkpt>
      <trkpt lat="47.52342" lon="5.42605">
        <ele>224.8</ele>
        <time>2019-04-02T08:58:10Z</time>
      </trkpt>
      <trkpt lat="47.52346" lon="5.42617">
        <ele>225.3</ele>
        <time>2019-04-02T08:58:19Z</time>
      </trkpt>
      <trkpt lat="47.5235" lon="5.42631">
        <ele>225.8</ele>
        <time>2019-04-02T08:58:28Z</time>
      </trkpt>
      <trkpt lat="47.52353" lon="5.42644">
        <ele>226.3</ele>
        <time>2019-04-02T08:58:37Z</time>
      </trkpt>
      <trkpt lat="47.52356" lon="5.42658">
        <ele>226.9</ele>
        <time>2019-04-02T08:58:46Z</time>
      </trkpt>
      <trkpt lat="47.5236" lon="5.42671">
        <ele>227.6</ele>
        <time>2019-04-02T08:58:54Z</time>
      </trkpt>
      <trkpt lat="47.52364" lon="5.42683">
        <ele>228.7</ele>
        <time>2019-04-02T08:59:02Z</time>
      </trkpt>
      <trkpt lat="47.52367" lon="5.42696">
        <ele>229.8</ele>
        <time>2019-04-02T08:59:12Z</time>
      </trkpt>
      <trkpt lat="47.52369" lon="5.4271">
        <ele>230.8</ele>
        <time>2019-04-02T08:59:20Z</time>
      </trkpt>
      <trkpt lat="47.52369" lon="5.42724">
        <ele>232</ele>
        <time>2019-04-02T08:59:29Z</time>
      </trkpt>
      <trkpt lat="47.52372" lon="5.42737">
        <ele>233</ele>
        <time>2019-04-02T08:59:38Z</time>
      </trkpt>
      <trkpt lat="47.52374" lon="5.42752">
        <ele>234.1</ele>
        <time>2019-04-02T09:00:35Z</time>
      </trkpt>
      <trkpt lat="47.52379" lon="5.42764">
        <ele>234.7</ele>
        <time>2019-04-02T09:00:41Z</time>
      </trkpt>
      <trkpt lat="47.52383" lon="5.42776">
        <ele>235.5</ele>
        <time>2019-04-02T09:00:57Z</time>
      </trkpt>
      <trkpt lat="47.52384" lon="5.4279">
        <ele>236.4</ele>
        <time>2019-04-02T09:01:08Z</time>
      </trkpt>
      <trkpt lat="47.52386" lon="5.42803">
        <ele>237.2</ele>
        <time>2019-04-02T09:01:30Z</time>
      </trkpt>
      <trkpt lat="47.52389" lon="5.42816">
        <ele>238.1</ele>
        <time>2019-04-02T09:03:19Z</time>
      </trkpt>
      <trkpt lat="47.52398" lon="5.4281">
        <ele>237.6</ele>
        <time>2019-04-02T09:07:00Z</time>
      </trkpt>
      <trkpt lat="47.52408" lon="5.42806">
        <ele>237.2</ele>
        <time>2019-04-02T09:07:05Z</time>
      </trkpt>
      <trkpt lat="47.52416" lon="5.42798">
        <ele>236.5</ele>
        <time>2019-04-02T09:07:14Z</time>
      </trkpt>
      <trkpt lat="47.52424" lon="5.42789">
        <ele>235.6</ele>
        <time>2019-04-02T09:07:21Z</time>
      </trkpt>
      <trkpt lat="47.52432" lon="5.42779">
        <ele>234.8</ele>
        <time>2019-04-02T09:07:28Z</time>
      </trkpt>
      <trkpt lat="47.5244" lon="5.42773">
        <ele>234.1</ele>
        <time>2019-04-02T09:07:35Z</time>
      </trkpt>
      <trkpt lat="47.5245" lon="5.42766">
        <ele>233.4</ele>
        <time>2019-04-02T09:07:45Z</time>
      </trkpt>
      <trkpt lat="47.52459" lon="5.42759">
        <ele>232.7</ele>
        <time>2019-04-02T09:07:52Z</time>
      </trkpt>
      <trkpt lat="47.52468" lon="5.42756">
        <ele>232.2</ele>
        <time>2019-04-02T09:08:01Z</time>
      </trkpt>
      <trkpt lat="47.52477" lon="5.42752">
        <ele>231.7</ele>
        <time>2019-04-02T09:08:10Z</time>
      </trkpt>
      <trkpt lat="47.52486" lon="5.42748">
        <ele>231.2</ele>
        <time>2019-04-02T09:08:18Z</time>
      </trkpt>
      <trkpt lat="47.52495" lon="5.42743">
        <ele>230.8</ele>
        <time>2019-04-02T09:08:26Z</time>
      </trkpt>
      <trkpt lat="47.52504" lon="5.42737">
        <ele>230.3</ele>
        <time>2019-04-02T09:08:34Z</time>
      </trkpt>
      <trkpt lat="47.52512" lon="5.4273">
        <ele>229.7</ele>
        <time>2019-04-02T09:08:42Z</time>
      </trkpt>
      <trkpt lat="47.52519" lon="5.42721">
        <ele>229.1</ele>
        <time>2019-04-02T09:08:52Z</time>
      </trkpt>
      <trkpt lat="47.52527" lon="5.42713">
        <ele>228.5</ele>
        <time>2019-04-02T09:09:01Z</time>
      </trkpt>
      <trkpt lat="47.52532" lon="5.42702">
        <ele>228</ele>
        <time>2019-04-02T09:09:10Z</time>
      </trkpt>
      <trkpt lat="47.52537" lon="5.42691">
        <ele>227.5</ele>
        <time>2019-04-02T09:09:18Z</time>
      </trkpt>
      <trkpt lat="47.52542" lon="5.42678">
        <ele>226.9</ele>
        <time>2019-04-02T09:09:26Z</time>
      </trkpt>
      <trkpt lat="47.52546" lon="5.42665">
        <ele>226.4</ele>
        <time>2019-04-02T09:09:35Z</time>
      </trkpt>
      <trkpt lat="47.5255" lon="5.42651">
        <ele>226.1</ele>
        <time>2019-04-02T09:09:44Z</time>
      </trkpt>
      <trkpt lat="47.52555" lon="5.42639">
        <ele>225.9</ele>
        <time>2019-04-02T09:09:52Z</time>
      </trkpt>
      <trkpt lat="47.5256" lon="5.42629">
        <ele>225.7</ele>
        <time>2019-04-02T09:10:00Z</time>
      </trkpt>
      <trkpt lat="47.52563" lon="5.42615">
        <ele>225.5</ele>
        <time>2019-04-02T09:10:11Z</time>
      </trkpt>
      <trkpt lat="47.52569" lon="5.42604">
        <ele>225.3</ele>
        <time>2019-04-02T09:10:20Z</time>
      </trkpt>
      <trkpt lat="47.52575" lon="5.42593">
        <ele>225.1</ele>
        <time>2019-04-02T09:10:28Z</time>
      </trkpt>
      <trkpt lat="47.5258" lon="5.4258">
        <ele>225</ele>
        <time>2019-04-02T09:10:38Z</time>
      </trkpt>
      <trkpt lat="47.52588" lon="5.42575">
        <ele>225.1</ele>
        <time>2019-04-02T09:10:46Z</time>
      </trkpt>
      <trkpt lat="47.52594" lon="5.42564">
        <ele>225.1</ele>
        <time>2019-04-02T09:10:53Z</time>
      </trkpt>
      <trkpt lat="47.52599" lon="5.42551">
        <ele>225.3</ele>
        <time>2019-04-02T09:11:00Z</time>
      </trkpt>
      <trkpt lat="47.52605" lon="5.42539">
        <ele>225.4</ele>
        <time>2019-04-02T09:11:08Z</time>
      </trkpt>
      <trkpt lat="47.5261" lon="5.42528">
        <ele>225.6</ele>
        <time>2019-04-02T09:11:16Z</time>
      </trkpt>
      <trkpt lat="47.52617" lon="5.42519">
        <ele>225.7</ele>
        <time>2019-04-02T09:11:24Z</time>
      </trkpt>
      <trkpt lat="47.52623" lon="5.42507">
        <ele>225.9</ele>
        <time>2019-04-02T09:11:34Z</time>
      </trkpt>
      <trkpt lat="47.52627" lon="5.42496">
        <ele>225.9</ele>
        <time>2019-04-02T09:11:44Z</time>
      </trkpt>
      <trkpt lat="47.52629" lon="5.42482">
        <ele>225.8</ele>
        <time>2019-04-02T09:11:53Z</time>
      </trkpt>
      <trkpt lat="47.52631" lon="5.42468">
        <ele>225.7</ele>
        <time>2019-04-02T09:12:02Z</time>
      </trkpt>
      <trkpt lat="47.52632" lon="5.42453">
        <ele>225.5</ele>
        <time>2019-04-02T09:12:11Z</time>
      </trkpt>
      <trkpt lat="47.52634" lon="5.42439">
        <ele>225.4</ele>
        <time>2019-04-02T09:12:18Z</time>
      </trkpt>
      <trkpt lat="47.52637" lon="5.42427">
        <ele>225.4</ele>
        <time>2019-04-02T09:12:25Z</time>
      </trkpt>
      <trkpt lat="47.52641" lon="5.42415">
        <ele>225.4</ele>
        <time>2019-04-02T09:12:32Z</time>
      </trkpt>
      <trkpt lat="47.52644" lon="5.42402">
        <ele>225.6</ele>
        <time>2019-04-02T09:12:40Z</time>
      </trkpt>
      <trkpt lat="47.52648" lon="5.42388">
        <ele>225.9</ele>
        <time>2019-04-02T09:12:49Z</time>
      </trkpt>
      <trkpt lat="47.52653" lon="5.42376">
        <ele>226.2</ele>
        <time>2019-04-02T09:12:57Z</time>
      </trkpt>
      <trkpt lat="47.52656" lon="5.42362">
        <ele>226.4</ele>
        <time>2019-04-02T09:13:06Z</time>
      </trkpt>
      <trkpt lat="47.5266" lon="5.42349">
        <ele>226.6</ele>
        <time>2019-04-02T09:13:15Z</time>
      </trkpt>
      <trkpt lat="47.52664" lon="5.42335">
        <ele>226.9</ele>
        <time>2019-04-02T09:13:24Z</time>
      </trkpt>
      <trkpt lat="47.52667" lon="5.42323">
        <ele>226.9</ele>
        <time>2019-04-02T09:13:32Z</time>
      </trkpt>
      <trkpt lat="47.5267" lon="5.42309">
        <ele>226.7</ele>
        <time>2019-04-02T09:13:40Z</time>
      </trkpt>
      <trkpt lat="47.52673" lon="5.42295">
        <ele>226.5</ele>
        <time>2019-04-02T09:13:49Z</time>
      </trkpt>
      <trkpt lat="47.52676" lon="5.42282">
        <ele>226.3</ele>
        <time>2019-04-02T09:13:58Z</time>
      </trkpt>
      <trkpt lat="47.52676" lon="5.42268">
        <ele>226.2</ele>
        <time>2019-04-02T09:14:09Z</time>
      </trkpt>
      <trkpt lat="47.52681" lon="5.42256">
        <ele>226.1</ele>
        <time>2019-04-02T09:14:18Z</time>
      </trkpt>
      <trkpt lat="47.52685" lon="5.42242">
        <ele>226.2</ele>
        <time>2019-04-02T09:14:26Z</time>
      </trkpt>
      <trkpt lat="47.52687" lon="5.42228">
        <ele>226.7</ele>
        <time>2019-04-02T09:14:34Z</time>
      </trkpt>
      <trkpt lat="47.52691" lon="5.42215">
        <ele>227</ele>
        <time>2019-04-02T09:14:42Z</time>
      </trkpt>
      <trkpt lat="47.52693" lon="5.422">
        <ele>227.4</ele>
        <time>2019-04-02T09:14:50Z</time>
      </trkpt>
      <trkpt lat="47.52695" lon="5.42187">
        <ele>227.8</ele>
        <time>2019-04-02T09:14:58Z</time>
      </trkpt>
      <trkpt lat="47.52697" lon="5.42173">
        <ele>228.1</ele>
        <time>2019-04-02T09:15:07Z</time>
      </trkpt>
      <trkpt lat="47.52701" lon="5.42159">
        <ele>228.2</ele>
        <time>2019-04-02T09:15:15Z</time>
      </trkpt>
      <trkpt lat="47.52705" lon="5.42145">
        <ele>228</ele>
        <time>2019-04-02T09:15:23Z</time>
      </trkpt>
      <trkpt lat="47.52709" lon="5.42131">
        <ele>227.8</ele>
        <time>2019-04-02T09:15:31Z</time>
      </trkpt>
      <trkpt lat="47.52711" lon="5.42118">
        <ele>227.5</ele>
        <time>2019-04-02T09:15:38Z</time>
      </trkpt>
      <trkpt lat="47.52716" lon="5.42104">
        <ele>227.1</ele>
        <time>2019-04-02T09:15:45Z</time>
      </trkpt>
      <trkpt lat="47.5272" lon="5.42091">
        <ele>226.7</ele>
        <time>2019-04-02T09:15:53Z</time>
      </trkpt>
      <trkpt lat="47.52721" lon="5.42077">
        <ele>226</ele>
        <time>2019-04-02T09:16:01Z</time>
      </trkpt>
      <trkpt lat="47.52724" lon="5.42063">
        <ele>225.2</ele>
        <time>2019-04-02T09:16:10Z</time>
      </trkpt>
      <trkpt lat="47.52725" lon="5.4205">
        <ele>224.4</ele>
        <time>2019-04-02T09:16:18Z</time>
      </trkpt>
      <trkpt lat="47.5273" lon="5.42037">
        <ele>223.5</ele>
        <time>2019-04-02T09:16:26Z</time>
      </trkpt>
      <trkpt lat="47.52733" lon="5.42023">
        <ele>222.7</ele>
        <time>2019-04-02T09:16:34Z</time>
      </trkpt>
      <trkpt lat="47.52737" lon="5.42011">
        <ele>221.9</ele>
        <time>2019-04-02T09:16:42Z</time>
      </trkpt>
      <trkpt lat="47.52742" lon="5.41997">
        <ele>221.4</ele>
        <time>2019-04-02T09:16:50Z</time>
      </trkpt>
      <trkpt lat="47.52745" lon="5.41984">
        <ele>221.7</ele>
        <time>2019-04-02T09:16:58Z</time>
      </trkpt>
      <trkpt lat="47.52749" lon="5.41971">
        <ele>222.1</ele>
        <time>2019-04-02T09:17:12Z</time>
      </trkpt>
      <trkpt lat="47.52753" lon="5.41957">
        <ele>222.5</ele>
        <time>2019-04-02T09:17:20Z</time>
      </trkpt>
      <trkpt lat="47.52755" lon="5.41944">
        <ele>222.9</ele>
        <time>2019-04-02T09:17:28Z</time>
      </trkpt>
      <trkpt lat="47.52759" lon="5.41931">
        <ele>223.3</ele>
        <time>2019-04-02T09:17:37Z</time>
      </trkpt>
      <trkpt lat="47.52762" lon="5.41918">
        <ele>223.7</ele>
        <time>2019-04-02T09:17:45Z</time>
      </trkpt>
      <trkpt lat="47.52765" lon="5.41903">
        <ele>223.9</ele>
        <time>2019-04-02T09:17:53Z</time>
      </trkpt>
      <trkpt lat="47.52768" lon="5.4189">
        <ele>224.2</ele>
        <time>2019-04-02T09:18:01Z</time>
      </trkpt>
      <trkpt lat="47.52771" lon="5.41876">
        <ele>224.6</ele>
        <time>2019-04-02T09:18:09Z</time>
      </trkpt>
      <trkpt lat="47.52774" lon="5.41862">
        <ele>225</ele>
        <time>2019-04-02T09:18:17Z</time>
      </trkpt>
      <trkpt lat="47.52776" lon="5.41848">
        <ele>225.5</ele>
        <time>2019-04-02T09:18:26Z</time>
      </trkpt>
      <trkpt lat="47.5278" lon="5.41834">
        <ele>226</ele>
        <time>2019-04-02T09:18:34Z</time>
      </trkpt>
      <trkpt lat="47.52783" lon="5.41821">
        <ele>226.2</ele>
        <time>2019-04-02T09:18:41Z</time>
      </trkpt>
      <trkpt lat="47.52786" lon="5.41807">
        <ele>226.4</ele>
        <time>2019-04-02T09:18:49Z</time>
      </trkpt>
      <trkpt lat="47.52789" lon="5.41794">
        <ele>226.6</ele>
        <time>2019-04-02T09:18:57Z</time>
      </trkpt>
      <trkpt lat="47.52793" lon="5.41781">
        <ele>226.9</ele>
        <time>2019-04-02T09:19:04Z</time>
      </trkpt>
      <trkpt lat="47.52795" lon="5.41767">
        <ele>227.1</ele>
        <time>2019-04-02T09:19:11Z</time>
      </trkpt>
      <trkpt lat="47.52798" lon="5.41754">
        <ele>227.3</ele>
        <time>2019-04-02T09:19:18Z</time>
      </trkpt>
      <trkpt lat="47.52801" lon="5.41741">
        <ele>227.6</ele>
        <time>2019-04-02T09:19:25Z</time>
      </trkpt>
      <trkpt lat="47.52806" lon="5.41728">
        <ele>227.9</ele>
        <time>2019-04-02T09:19:32Z</time>
      </trkpt>
      <trkpt lat="47.5281" lon="5.41715">
        <ele>228.3</ele>
        <time>2019-04-02T09:19:41Z</time>
      </trkpt>
      <trkpt lat="47.52811" lon="5.41702">
        <ele>228.5</ele>
        <time>2019-04-02T09:19:49Z</time>
      </trkpt>
      <trkpt lat="47.52814" lon="5.41689">
        <ele>228.8</ele>
        <time>2019-04-02T09:19:57Z</time>
      </trkpt>
      <trkpt lat="47.52812" lon="5.41675">
        <ele>228.9</ele>
        <time>2019-04-02T09:20:05Z</time>
      </trkpt>
      <trkpt lat="47.52811" lon="5.4166">
        <ele>229.1</ele>
        <time>2019-04-02T09:20:14Z</time>
      </trkpt>
      <trkpt lat="47.52809" lon="5.41647">
        <ele>229.3</ele>
        <time>2019-04-02T09:20:23Z</time>
      </trkpt>
      <trkpt lat="47.52807" lon="5.41634">
        <ele>229.5</ele>
        <time>2019-04-02T09:20:32Z</time>
      </trkpt>
      <trkpt lat="47.52802" lon="5.41622">
        <ele>229.6</ele>
        <time>2019-04-02T09:20:39Z</time>
      </trkpt>
      <trkpt lat="47.52799" lon="5.41608">
        <ele>229.7</ele>
        <time>2019-04-02T09:20:47Z</time>
      </trkpt>
      <trkpt lat="47.52794" lon="5.41596">
        <ele>229.8</ele>
        <time>2019-04-02T09:20:57Z</time>
      </trkpt>
      <trkpt lat="47.52791" lon="5.41582">
        <ele>230</ele>
        <time>2019-04-02T09:21:07Z</time>
      </trkpt>
      <trkpt lat="47.52786" lon="5.41571">
        <ele>230.2</ele>
        <time>2019-04-02T09:21:16Z</time>
      </trkpt>
      <trkpt lat="47.52783" lon="5.41557">
        <ele>230.6</ele>
        <time>2019-04-02T09:21:42Z</time>
      </trkpt>
      <trkpt lat="47.52777" lon="5.41547">
        <ele>230.7</ele>
        <time>2019-04-02T09:21:52Z</time>
      </trkpt>
      <trkpt lat="47.52773" lon="5.41535">
        <ele>231.1</ele>
        <time>2019-04-02T09:22:03Z</time>
      </trkpt>
      <trkpt lat="47.5277" lon="5.41522">
        <ele>231.6</ele>
        <time>2019-04-02T09:22:18Z</time>
      </trkpt>
      <trkpt lat="47.52766" lon="5.41508">
        <ele>232</ele>
        <time>2019-04-02T09:22:28Z</time>
      </trkpt>
      <trkpt lat="47.52762" lon="5.41494">
        <ele>232.3</ele>
        <time>2019-04-02T09:22:35Z</time>
      </trkpt>
      <trkpt lat="47.5276" lon="5.41481">
        <ele>232.2</ele>
        <time>2019-04-02T09:22:42Z</time>
      </trkpt>
      <trkpt lat="47.52756" lon="5.41469">
        <ele>232.1</ele>
        <time>2019-04-02T09:22:51Z</time>
      </trkpt>
      <trkpt lat="47.52757" lon="5.41455">
        <ele>232.1</ele>
        <time>2019-04-02T09:23:01Z</time>
      </trkpt>
      <trkpt lat="47.52758" lon="5.4144">
        <ele>232.1</ele>
        <time>2019-04-02T09:23:08Z</time>
      </trkpt>
      <trkpt lat="47.52757" lon="5.41424">
        <ele>232.1</ele>
        <time>2019-04-02T09:23:16Z</time>
      </trkpt>
      <trkpt lat="47.52756" lon="5.4141">
        <ele>232</ele>
        <time>2019-04-02T09:23:24Z</time>
      </trkpt>
      <trkpt lat="47.52755" lon="5.41396">
        <ele>231.8</ele>
        <time>2019-04-02T09:23:33Z</time>
      </trkpt>
      <trkpt lat="47.52754" lon="5.41383">
        <ele>231.6</ele>
        <time>2019-04-02T09:23:42Z</time>
      </trkpt>
      <trkpt lat="47.52758" lon="5.41371">
        <ele>231.5</ele>
        <time>2019-04-02T09:27:20Z</time>
      </trkpt>
      <trkpt lat="47.52749" lon="5.41367">
        <ele>231.4</ele>
        <time>2019-04-02T09:29:37Z</time>
      </trkpt>
      <trkpt lat="47.52741" lon="5.4136">
        <ele>231.1</ele>
        <time>2019-04-02T09:29:43Z</time>
      </trkpt>
      <trkpt lat="47.52732" lon="5.41352">
        <ele>230.9</ele>
        <time>2019-04-02T09:29:51Z</time>
      </trkpt>
      <trkpt lat="47.52724" lon="5.41344">
        <ele>230.7</ele>
        <time>2019-04-02T09:29:58Z</time>
      </trkpt>
      <trkpt lat="47.52715" lon="5.41337">
        <ele>230.6</ele>
        <time>2019-04-02T09:30:04Z</time>
      </trkpt>
      <trkpt lat="47.52707" lon="5.41331">
        <ele>230.6</ele>
        <time>2019-04-02T09:30:12Z</time>
      </trkpt>
      <trkpt lat="47.52699" lon="5.41323">
        <ele>230.7</ele>
        <time>2019-04-02T09:30:20Z</time>
      </trkpt>
      <trkpt lat="47.52691" lon="5.41316">
        <ele>230.8</ele>
        <time>2019-04-02T09:30:27Z</time>
      </trkpt>
      <trkpt lat="47.52683" lon="5.4131">
        <ele>230.8</ele>
        <time>2019-04-02T09:30:34Z</time>
      </trkpt>
      <trkpt lat="47.52674" lon="5.41303">
        <ele>230.9</ele>
        <time>2019-04-02T09:30:43Z</time>
      </trkpt>
      <trkpt lat="47.52666" lon="5.41295">
        <ele>230.9</ele>
        <time>2019-04-02T09:30:52Z</time>
      </trkpt>
      <trkpt lat="47.52659" lon="5.41287">
        <ele>231.1</ele>
        <time>2019-04-02T09:31:00Z</time>
      </trkpt>
      <trkpt lat="47.52651" lon="5.41281">
        <ele>231.3</ele>
        <time>2019-04-02T09:31:08Z</time>
      </trkpt>
      <trkpt lat="47.52642" lon="5.41276">
        <ele>231.5</ele>
        <time>2019-04-02T09:31:16Z</time>
      </trkpt>
      <trkpt lat="47.52634" lon="5.41269">
        <ele>231.8</ele>
        <time>2019-04-02T09:31:23Z</time>
      </trkpt>
      <trkpt lat="47.52625" lon="5.41263">
        <ele>232</ele>
        <time>2019-04-02T09:31:31Z</time>
      </trkpt>
      <trkpt lat="47.52616" lon="5.41256">
        <ele>232.4</ele>
        <time>2019-04-02T09:31:38Z</time>
      </trkpt>
      <trkpt lat="47.52609" lon="5.41248">
        <ele>232.8</ele>
        <time>2019-04-02T09:31:45Z</time>
      </trkpt>
      <trkpt lat="47.52601" lon="5.4124">
        <ele>233.3</ele>
        <time>2019-04-02T09:31:52Z</time>
      </trkpt>
      <trkpt lat="47.52593" lon="5.41232">
        <ele>233.7</ele>
        <time>2019-04-02T09:31:59Z</time>
      </trkpt>
      <trkpt lat="47.52585" lon="5.41225">
        <ele>234.2</ele>
        <time>2019-04-02T09:32:06Z</time>
      </trkpt>
      <trkpt lat="47.52576" lon="5.41218">
        <ele>234.3</ele>
        <time>2019-04-02T09:32:14Z</time>
      </trkpt>
      <trkpt lat="47.52567" lon="5.41212">
        <ele>234.2</ele>
        <time>2019-04-02T09:32:22Z</time>
      </trkpt>
      <trkpt lat="47.52559" lon="5.41206">
        <ele>234.1</ele>
        <time>2019-04-02T09:32:29Z</time>
      </trkpt>
      <trkpt lat="47.5255" lon="5.41199">
        <ele>234</ele>
        <time>2019-04-02T09:32:37Z</time>
      </trkpt>
      <trkpt lat="47.52541" lon="5.4119">
        <ele>234</ele>
        <time>2019-04-02T09:32:45Z</time>
      </trkpt>
      <trkpt lat="47.52533" lon="5.41184">
        <ele>233.9</ele>
        <time>2019-04-02T09:32:52Z</time>
      </trkpt>
      <trkpt lat="47.52525" lon="5.41177">
        <ele>233.8</ele>
        <time>2019-04-02T09:32:59Z</time>
      </trkpt>
      <trkpt lat="47.52517" lon="5.4117">
        <ele>233.7</ele>
        <time>2019-04-02T09:33:05Z</time>
      </trkpt>
      <trkpt lat="47.52509" lon="5.41164">
        <ele>233.6</ele>
        <time>2019-04-02T09:33:11Z</time>
      </trkpt>
      <trkpt lat="47.525" lon="5.41157">
        <ele>233.5</ele>
        <time>2019-04-02T09:33:18Z</time>
      </trkpt>
      <trkpt lat="47.52492" lon="5.4115">
        <ele>233.7</ele>
        <time>2019-04-02T09:33:24Z</time>
      </trkpt>
      <trkpt lat="47.52484" lon="5.41141">
        <ele>233.9</ele>
        <time>2019-04-02T09:33:31Z</time>
      </trkpt>
      <trkpt lat="47.52476" lon="5.41134">
        <ele>233.9</ele>
        <time>2019-04-02T09:33:38Z</time>
      </trkpt>
      <trkpt lat="47.52469" lon="5.41125">
        <ele>234.1</ele>
        <time>2019-04-02T09:33:45Z</time>
      </trkpt>
      <trkpt lat="47.52462" lon="5.41116">
        <ele>234.1</ele>
        <time>2019-04-02T09:33:53Z</time>
      </trkpt>
      <trkpt lat="47.52454" lon="5.41108">
        <ele>234.1</ele>
        <time>2019-04-02T09:34:00Z</time>
      </trkpt>
      <trkpt lat="47.52445" lon="5.41103">
        <ele>233.9</ele>
        <time>2019-04-02T09:34:08Z</time>
      </trkpt>
      <trkpt lat="47.52436" lon="5.41095">
        <ele>233.7</ele>
        <time>2019-04-02T09:34:15Z</time>
      </trkpt>
      <trkpt lat="47.52428" lon="5.41087">
        <ele>233.5</ele>
        <time>2019-04-02T09:34:24Z</time>
      </trkpt>
      <trkpt lat="47.5242" lon="5.41079">
        <ele>233.4</ele>
        <time>2019-04-02T09:34:33Z</time>
      </trkpt>
      <trkpt lat="47.52416" lon="5.41066">
        <ele>233.8</ele>
        <time>2019-04-02T09:34:40Z</time>
      </trkpt>
      <trkpt lat="47.52409" lon="5.41058">
        <ele>234</ele>
        <time>2019-04-02T09:34:47Z</time>
      </trkpt>
      <trkpt lat="47.52402" lon="5.4105">
        <ele>234.1</ele>
        <time>2019-04-02T09:34:54Z</time>
      </trkpt>
      <trkpt lat="47.52394" lon="5.41042">
        <ele>234.2</ele>
        <time>2019-04-02T09:35:01Z</time>
      </trkpt>
      <trkpt lat="47.52385" lon="5.41035">
        <ele>234.2</ele>
        <time>2019-04-02T09:35:10Z</time>
      </trkpt>
      <trkpt lat="47.52378" lon="5.41027">
        <ele>234.2</ele>
        <time>2019-04-02T09:35:18Z</time>
      </trkpt>
      <trkpt lat="47.52369" lon="5.4102">
        <ele>234.1</ele>
        <time>2019-04-02T09:35:25Z</time>
      </trkpt>
      <trkpt lat="47.52361" lon="5.41013">
        <ele>233.9</ele>
        <time>2019-04-02T09:35:33Z</time>
      </trkpt>
      <trkpt lat="47.52353" lon="5.41007">
        <ele>233.8</ele>
        <time>2019-04-02T09:35:40Z</time>
      </trkpt>
      <trkpt lat="47.52346" lon="5.40998">
        <ele>233.7</ele>
        <time>2019-04-02T09:35:47Z</time>
      </trkpt>
      <trkpt lat="47.52338" lon="5.40989">
        <ele>233.5</ele>
        <time>2019-04-02T09:35:54Z</time>
      </trkpt>
      <trkpt lat="47.52329" lon="5.40982">
        <ele>233.4</ele>
        <time>2019-04-02T09:36:02Z</time>
      </trkpt>
      <trkpt lat="47.52321" lon="5.40975">
        <ele>233.3</ele>
        <time>2019-04-02T09:36:10Z</time>
      </trkpt>
      <trkpt lat="47.52312" lon="5.40968">
        <ele>233.1</ele>
        <time>2019-04-02T09:36:18Z</time>
      </trkpt>
      <trkpt lat="47.52305" lon="5.40959">
        <ele>232.8</ele>
        <time>2019-04-02T09:36:26Z</time>
      </trkpt>
      <trkpt lat="47.52298" lon="5.40951">
        <ele>232.4</ele>
        <time>2019-04-02T09:36:34Z</time>
      </trkpt>
      <trkpt lat="47.52289" lon="5.40944">
        <ele>231.9</ele>
        <time>2019-04-02T09:36:42Z</time>
      </trkpt>
      <trkpt lat="47.5228" lon="5.40938">
        <ele>231.2</ele>
        <time>2019-04-02T09:36:52Z</time>
      </trkpt>
      <trkpt lat="47.52273" lon="5.4093">
        <ele>230.4</ele>
        <time>2019-04-02T09:37:20Z</time>
      </trkpt>
      <trkpt lat="47.52263" lon="5.40927">
        <ele>229.6</ele>
        <time>2019-04-02T09:37:28Z</time>
      </trkpt>
      <trkpt lat="47.52253" lon="5.40923">
        <ele>228.6</ele>
        <time>2019-04-02T09:37:36Z</time>
      </trkpt>
      <trkpt lat="47.52245" lon="5.40916">
        <ele>228.1</ele>
        <time>2019-04-02T09:37:45Z</time>
      </trkpt>
      <trkpt lat="47.52237" lon="5.40907">
        <ele>228.5</ele>
        <time>2019-04-02T09:37:53Z</time>
      </trkpt>
      <trkpt lat="47.5223" lon="5.40899">
        <ele>228.9</ele>
        <time>2019-04-02T09:38:02Z</time>
      </trkpt>
      <trkpt lat="47.52222" lon="5.40892">
        <ele>229.1</ele>
        <time>2019-04-02T09:38:10Z</time>
      </trkpt>
      <trkpt lat="47.52213" lon="5.40888">
        <ele>229.2</ele>
        <time>2019-04-02T09:38:25Z</time>
      </trkpt>
      <trkpt lat="47.52205" lon="5.40881">
        <ele>229.2</ele>
        <time>2019-04-02T09:38:33Z</time>
      </trkpt>
      <trkpt lat="47.52198" lon="5.40869">
        <ele>229.4</ele>
        <time>2019-04-02T09:38:38Z</time>
      </trkpt>
      <trkpt lat="47.52191" lon="5.40859">
        <ele>229.5</ele>
        <time>2019-04-02T09:38:44Z</time>
      </trkpt>
      <trkpt lat="47.52182" lon="5.40852">
        <ele>229.4</ele>
        <time>2019-04-02T09:38:52Z</time>
      </trkpt>
      <trkpt lat="47.52174" lon="5.40844">
        <ele>229.2</ele>
        <time>2019-04-02T09:38:58Z</time>
      </trkpt>
      <trkpt lat="47.52166" lon="5.40836">
        <ele>229</ele>
        <time>2019-04-02T09:39:05Z</time>
      </trkpt>
      <trkpt lat="47.52158" lon="5.40829">
        <ele>229.1</ele>
        <time>2019-04-02T09:39:12Z</time>
      </trkpt>
      <trkpt lat="47.52151" lon="5.4082">
        <ele>229.3</ele>
        <time>2019-04-02T09:39:21Z</time>
      </trkpt>
      <trkpt lat="47.52144" lon="5.4081">
        <ele>229.5</ele>
        <time>2019-04-02T09:39:29Z</time>
      </trkpt>
      <trkpt lat="47.52136" lon="5.40803">
        <ele>229.4</ele>
        <time>2019-04-02T09:39:37Z</time>
      </trkpt>
      <trkpt lat="47.52127" lon="5.40796">
        <ele>229.3</ele>
        <time>2019-04-02T09:39:45Z</time>
      </trkpt>
      <trkpt lat="47.5212" lon="5.40786">
        <ele>229.1</ele>
        <time>2019-04-02T09:39:52Z</time>
      </trkpt>
      <trkpt lat="47.52111" lon="5.40779">
        <ele>228.8</ele>
        <time>2019-04-02T09:40:00Z</time>
      </trkpt>
      <trkpt lat="47.52103" lon="5.40771">
        <ele>228.4</ele>
        <time>2019-04-02T09:40:07Z</time>
      </trkpt>
      <trkpt lat="47.52096" lon="5.40762">
        <ele>227.9</ele>
        <time>2019-04-02T09:40:15Z</time>
      </trkpt>
      <trkpt lat="47.5209" lon="5.40751">
        <ele>227.4</ele>
        <time>2019-04-02T09:40:23Z</time>
      </trkpt>
      <trkpt lat="47.52086" lon="5.40738">
        <ele>226.8</ele>
        <time>2019-04-02T09:40:30Z</time>
      </trkpt>
      <trkpt lat="47.5208" lon="5.40727">
        <ele>226.2</ele>
        <time>2019-04-02T09:40:37Z</time>
      </trkpt>
      <trkpt lat="47.52074" lon="5.40716">
        <ele>225.9</ele>
        <time>2019-04-02T09:40:45Z</time>
      </trkpt>
      <trkpt lat="47.52067" lon="5.40706">
        <ele>225.5</ele>
        <time>2019-04-02T09:40:53Z</time>
      </trkpt>
      <trkpt lat="47.52061" lon="5.40694">
        <ele>225.1</ele>
        <time>2019-04-02T09:41:02Z</time>
      </trkpt>
      <trkpt lat="47.52055" lon="5.40683">
        <ele>224.6</ele>
        <time>2019-04-02T09:41:10Z</time>
      </trkpt>
      <trkpt lat="47.52049" lon="5.40673">
        <ele>224.2</ele>
        <time>2019-04-02T09:41:18Z</time>
      </trkpt>
      <trkpt lat="47.52043" lon="5.40663">
        <ele>223.9</ele>
        <time>2019-04-02T09:41:27Z</time>
      </trkpt>
      <trkpt lat="47.52037" lon="5.40653">
        <ele>223.6</ele>
        <time>2019-04-02T09:41:37Z</time>
      </trkpt>
      <trkpt lat="47.5203" lon="5.40643">
        <ele>223.3</ele>
        <time>2019-04-02T09:41:46Z</time>
      </trkpt>
      <trkpt lat="47.52026" lon="5.4063">
        <ele>223</ele>
        <time>2019-04-02T09:41:51Z</time>
      </trkpt>
      <trkpt lat="47.52022" lon="5.40617">
        <ele>222.7</ele>
        <time>2019-04-02T09:41:56Z</time>
      </trkpt>
      <trkpt lat="47.52018" lon="5.40603">
        <ele>222.3</ele>
        <time>2019-04-02T09:42:02Z</time>
      </trkpt>
      <trkpt lat="47.52015" lon="5.40588">
        <ele>221.9</ele>
        <time>2019-04-02T09:42:08Z</time>
      </trkpt>
      <trkpt lat="47.5201" lon="5.40575">
        <ele>221.9</ele>
        <time>2019-04-02T09:42:15Z</time>
      </trkpt>
      <trkpt lat="47.52006" lon="5.40563">
        <ele>222</ele>
        <time>2019-04-02T09:42:21Z</time>
      </trkpt>
      <trkpt lat="47.52004" lon="5.4055">
        <ele>222</ele>
        <time>2019-04-02T09:42:27Z</time>
      </trkpt>
      <trkpt lat="47.52001" lon="5.40537">
        <ele>222</ele>
        <time>2019-04-02T09:42:36Z</time>
      </trkpt>
      <trkpt lat="47.51996" lon="5.40525">
        <ele>222.1</ele>
        <time>2019-04-02T09:42:45Z</time>
      </trkpt>
      <trkpt lat="47.51994" lon="5.40511">
        <ele>222.2</ele>
        <time>2019-04-02T09:42:53Z</time>
      </trkpt>
      <trkpt lat="47.51991" lon="5.40496">
        <ele>222.4</ele>
        <time>2019-04-02T09:43:00Z</time>
      </trkpt>
      <trkpt lat="47.51987" lon="5.40483">
        <ele>222.8</ele>
        <time>2019-04-02T09:43:08Z</time>
      </trkpt>
      <trkpt lat="47.51984" lon="5.40469">
        <ele>223.2</ele>
        <time>2019-04-02T09:43:16Z</time>
      </trkpt>
      <trkpt lat="47.5198" lon="5.40455">
        <ele>223.5</ele>
        <time>2019-04-02T09:43:23Z</time>
      </trkpt>
      <trkpt lat="47.51975" lon="5.40442">
        <ele>223.9</ele>
        <time>2019-04-02T09:43:31Z</time>
      </trkpt>
      <trkpt lat="47.51973" lon="5.40429">
        <ele>224.1</ele>
        <time>2019-04-02T09:43:38Z</time>
      </trkpt>
      <trkpt lat="47.5197" lon="5.40415">
        <ele>224.3</ele>
        <time>2019-04-02T09:43:46Z</time>
      </trkpt>
      <trkpt lat="47.51967" lon="5.40402">
        <ele>224.3</ele>
        <time>2019-04-02T09:43:54Z</time>
      </trkpt>
      <trkpt lat="47.51963" lon="5.40389">
        <ele>224.3</ele>
        <time>2019-04-02T09:44:02Z</time>
      </trkpt>
      <trkpt lat="47.51959" lon="5.40376">
        <ele>224.3</ele>
        <time>2019-04-02T09:44:09Z</time>
      </trkpt>
      <trkpt lat="47.51956" lon="5.40363">
        <ele>224.2</ele>
        <time>2019-04-02T09:44:16Z</time>
      </trkpt>
      <trkpt lat="47.51951" lon="5.40351">
        <ele>224.1</ele>
        <time>2019-04-02T09:44:22Z</time>
      </trkpt>
      <trkpt lat="47.51947" lon="5.40338">
        <ele>224</ele>
        <time>2019-04-02T09:44:29Z</time>
      </trkpt>
      <trkpt lat="47.51943" lon="5.40325">
        <ele>223.7</ele>
        <time>2019-04-02T09:44:36Z</time>
      </trkpt>
      <trkpt lat="47.51939" lon="5.40313">
        <ele>223.3</ele>
        <time>2019-04-02T09:44:44Z</time>
      </trkpt>
      <trkpt lat="47.51932" lon="5.40302">
        <ele>223</ele>
        <time>2019-04-02T09:44:53Z</time>
      </trkpt>
      <trkpt lat="47.51926" lon="5.40291">
        <ele>222.5</ele>
        <time>2019-04-02T09:45:02Z</time>
      </trkpt>
      <trkpt lat="47.51918" lon="5.40286">
        <ele>222.3</ele>
        <time>2019-04-02T09:45:20Z</time>
      </trkpt>
      <trkpt lat="47.51912" lon="5.40274">
        <ele>222.1</ele>
        <time>2019-04-02T09:45:27Z</time>
      </trkpt>
      <trkpt lat="47.51905" lon="5.40265">
        <ele>222.2</ele>
        <time>2019-04-02T09:45:33Z</time>
      </trkpt>
      <trkpt lat="47.51901" lon="5.4025">
        <ele>222</ele>
        <time>2019-04-02T09:45:39Z</time>
      </trkpt>
      <trkpt lat="47.51895" lon="5.40238">
        <ele>222</ele>
        <time>2019-04-02T09:45:46Z</time>
      </trkpt>
      <trkpt lat="47.51887" lon="5.40229">
        <ele>222.3</ele>
        <time>2019-04-02T09:45:54Z</time>
      </trkpt>
      <trkpt lat="47.51879" lon="5.4022">
        <ele>222.4</ele>
        <time>2019-04-02T09:46:02Z</time>
      </trkpt>
      <trkpt lat="47.51872" lon="5.4021">
        <ele>222.4</ele>
        <time>2019-04-02T09:46:10Z</time>
      </trkpt>
      <trkpt lat="47.51865" lon="5.40199">
        <ele>222.3</ele>
        <time>2019-04-02T09:46:17Z</time>
      </trkpt>
      <trkpt lat="47.51857" lon="5.40194">
        <ele>222.4</ele>
        <time>2019-04-02T09:46:24Z</time>
      </trkpt>
      <trkpt lat="47.51849" lon="5.40185">
        <ele>222.4</ele>
        <time>2019-04-02T09:46:32Z</time>
      </trkpt>
      <trkpt lat="47.51841" lon="5.40178">
        <ele>222.3</ele>
        <time>2019-04-02T09:46:41Z</time>
      </trkpt>
      <trkpt lat="47.51834" lon="5.40167">
        <ele>222</ele>
        <time>2019-04-02T09:46:49Z</time>
      </trkpt>
      <trkpt lat="47.51826" lon="5.40161">
        <ele>222.2</ele>
        <time>2019-04-02T09:46:58Z</time>
      </trkpt>
      <trkpt lat="47.51819" lon="5.4015">
        <ele>222.2</ele>
        <time>2019-04-02T09:47:06Z</time>
      </trkpt>
      <trkpt lat="47.51812" lon="5.40141">
        <ele>222.3</ele>
        <time>2019-04-02T09:47:13Z</time>
      </trkpt>
      <trkpt lat="47.51805" lon="5.4013">
        <ele>222.3</ele>
        <time>2019-04-02T09:47:20Z</time>
      </trkpt>
      <trkpt lat="47.51798" lon="5.40121">
        <ele>222.2</ele>
        <time>2019-04-02T09:47:26Z</time>
      </trkpt>
      <trkpt lat="47.51791" lon="5.40111">
        <ele>222.2</ele>
        <time>2019-04-02T09:47:34Z</time>
      </trkpt>
      <trkpt lat="47.51784" lon="5.40101">
        <ele>222</ele>
        <time>2019-04-02T09:47:41Z</time>
      </trkpt>
      <trkpt lat="47.51775" lon="5.40094">
        <ele>222</ele>
        <time>2019-04-02T09:47:50Z</time>
      </trkpt>
      <trkpt lat="47.51767" lon="5.40086">
        <ele>221.9</ele>
        <time>2019-04-02T09:48:00Z</time>
      </trkpt>
      <trkpt lat="47.51763" lon="5.40074">
        <ele>221.8</ele>
        <time>2019-04-02T09:48:09Z</time>
      </trkpt>
      <trkpt lat="47.51758" lon="5.40063">
        <ele>221.7</ele>
        <time>2019-04-02T09:49:18Z</time>
      </trkpt>
      <trkpt lat="47.51751" lon="5.40054">
        <ele>221.6</ele>
        <time>2019-04-02T09:49:26Z</time>
      </trkpt>
      <trkpt lat="47.51743" lon="5.40046">
        <ele>221.8</ele>
        <time>2019-04-02T09:55:06Z</time>
      </trkpt>
      <trkpt lat="47.51737" lon="5.40034">
        <ele>221.8</ele>
        <time>2019-04-02T09:55:12Z</time>
      </trkpt>
      <trkpt lat="47.51729" lon="5.40026">
        <ele>221.9</ele>
        <time>2019-04-02T09:55:19Z</time>
      </trkpt>
      <trkpt lat="47.5172" lon="5.40016">
        <ele>222</ele>
        <time>2019-04-02T09:55:24Z</time>
      </trkpt>
      <trkpt lat="47.51712" lon="5.4001">
        <ele>222.1</ele>
        <time>2019-04-02T09:55:30Z</time>
      </trkpt>
      <trkpt lat="47.51703" lon="5.40001">
        <ele>222.1</ele>
        <time>2019-04-02T09:55:38Z</time>
      </trkpt>
      <trkpt lat="47.51694" lon="5.39994">
        <ele>222.4</ele>
        <time>2019-04-02T09:55:44Z</time>
      </trkpt>
      <trkpt lat="47.51686" lon="5.39987">
        <ele>222.8</ele>
        <time>2019-04-02T09:55:52Z</time>
      </trkpt>
      <trkpt lat="47.51678" lon="5.39979">
        <ele>223</ele>
        <time>2019-04-02T09:56:01Z</time>
      </trkpt>
      <trkpt lat="47.51671" lon="5.3997">
        <ele>223.3</ele>
        <time>2019-04-02T09:56:09Z</time>
      </trkpt>
      <trkpt lat="47.51663" lon="5.39962">
        <ele>223.4</ele>
        <time>2019-04-02T09:56:17Z</time>
      </trkpt>
      <trkpt lat="47.51655" lon="5.39952">
        <ele>223.5</ele>
        <time>2019-04-02T09:56:25Z</time>
      </trkpt>
      <trkpt lat="47.51647" lon="5.39942">
        <ele>223.5</ele>
        <time>2019-04-02T09:56:32Z</time>
      </trkpt>
      <trkpt lat="47.51639" lon="5.39934">
        <ele>223.5</ele>
        <time>2019-04-02T09:56:39Z</time>
      </trkpt>
      <trkpt lat="47.5163" lon="5.39927">
        <ele>223.5</ele>
        <time>2019-04-02T09:56:46Z</time>
      </trkpt>
      <trkpt lat="47.51622" lon="5.39918">
        <ele>223.5</ele>
        <time>2019-04-02T09:56:55Z</time>
      </trkpt>
      <trkpt lat="47.51614" lon="5.39911">
        <ele>223.4</ele>
        <time>2019-04-02T09:57:02Z</time>
      </trkpt>
      <trkpt lat="47.51607" lon="5.39901">
        <ele>223.4</ele>
        <time>2019-04-02T09:57:09Z</time>
      </trkpt>
      <trkpt lat="47.516" lon="5.39892">
        <ele>223.4</ele>
        <time>2019-04-02T09:57:15Z</time>
      </trkpt>
      <trkpt lat="47.51593" lon="5.39883">
        <ele>223.5</ele>
        <time>2019-04-02T09:57:22Z</time>
      </trkpt>
      <trkpt lat="47.51585" lon="5.39874">
        <ele>223.5</ele>
        <time>2019-04-02T09:57:30Z</time>
      </trkpt>
      <trkpt lat="47.51577" lon="5.39867">
        <ele>223.5</ele>
        <time>2019-04-02T09:57:38Z</time>
      </trkpt>
      <trkpt lat="47.51569" lon="5.39861">
        <ele>223.4</ele>
        <time>2019-04-02T09:57:45Z</time>
      </trkpt>
      <trkpt lat="47.5156" lon="5.39854">
        <ele>223.3</ele>
        <time>2019-04-02T09:57:53Z</time>
      </trkpt>
      <trkpt lat="47.51552" lon="5.39848">
        <ele>223.2</ele>
        <time>2019-04-02T09:58:01Z</time>
      </trkpt>
      <trkpt lat="47.51542" lon="5.39842">
        <ele>223</ele>
        <time>2019-04-02T09:58:09Z</time>
      </trkpt>
      <trkpt lat="47.51534" lon="5.39835">
        <ele>222.8</ele>
        <time>2019-04-02T09:58:17Z</time>
      </trkpt>
      <trkpt lat="47.51526" lon="5.39828">
        <ele>222.6</ele>
        <time>2019-04-02T09:58:26Z</time>
      </trkpt>
      <trkpt lat="47.51518" lon="5.39822">
        <ele>222.5</ele>
        <time>2019-04-02T09:58:34Z</time>
      </trkpt>
      <trkpt lat="47.51509" lon="5.39816">
        <ele>222.3</ele>
        <time>2019-04-02T09:58:42Z</time>
      </trkpt>
      <trkpt lat="47.515" lon="5.3981">
        <ele>222</ele>
        <time>2019-04-02T09:58:49Z</time>
      </trkpt>
      <trkpt lat="47.51491" lon="5.39804">
        <ele>222.1</ele>
        <time>2019-04-02T09:58:56Z</time>
      </trkpt>
      <trkpt lat="47.51481" lon="5.39798">
        <ele>222.3</ele>
        <time>2019-04-02T09:59:04Z</time>
      </trkpt>
      <trkpt lat="47.51473" lon="5.39793">
        <ele>222.5</ele>
        <time>2019-04-02T09:59:11Z</time>
      </trkpt>
      <trkpt lat="47.51464" lon="5.39787">
        <ele>222.7</ele>
        <time>2019-04-02T09:59:19Z</time>
      </trkpt>
      <trkpt lat="47.51455" lon="5.39782">
        <ele>222.9</ele>
        <time>2019-04-02T09:59:26Z</time>
      </trkpt>
      <trkpt lat="47.51448" lon="5.39775">
        <ele>223.1</ele>
        <time>2019-04-02T09:59:33Z</time>
      </trkpt>
      <trkpt lat="47.51439" lon="5.39768">
        <ele>223.3</ele>
        <time>2019-04-02T09:59:40Z</time>
      </trkpt>
      <trkpt lat="47.51431" lon="5.39762">
        <ele>223.5</ele>
        <time>2019-04-02T09:59:47Z</time>
      </trkpt>
      <trkpt lat="47.51422" lon="5.39757">
        <ele>223.8</ele>
        <time>2019-04-02T09:59:57Z</time>
      </trkpt>
      <trkpt lat="47.51413" lon="5.39753">
        <ele>223.9</ele>
        <time>2019-04-02T10:00:05Z</time>
      </trkpt>
      <trkpt lat="47.51403" lon="5.39751">
        <ele>223.8</ele>
        <time>2019-04-02T10:00:13Z</time>
      </trkpt>
      <trkpt lat="47.51393" lon="5.39746">
        <ele>223.9</ele>
        <time>2019-04-02T10:00:21Z</time>
      </trkpt>
      <trkpt lat="47.51385" lon="5.3974">
        <ele>223.9</ele>
        <time>2019-04-02T10:00:28Z</time>
      </trkpt>
      <trkpt lat="47.51376" lon="5.39734">
        <ele>223.9</ele>
        <time>2019-04-02T10:00:36Z</time>
      </trkpt>
      <trkpt lat="47.51367" lon="5.39727">
        <ele>223.9</ele>
        <time>2019-04-02T10:00:43Z</time>
      </trkpt>
      <trkpt lat="47.51358" lon="5.3972">
        <ele>223.9</ele>
        <time>2019-04-02T10:00:50Z</time>
      </trkpt>
      <trkpt lat="47.5135" lon="5.39715">
        <ele>223.8</ele>
        <time>2019-04-02T10:00:57Z</time>
      </trkpt>
      <trkpt lat="47.5134" lon="5.3971">
        <ele>223.7</ele>
        <time>2019-04-02T10:01:05Z</time>
      </trkpt>
      <trkpt lat="47.51331" lon="5.39706">
        <ele>223.4</ele>
        <time>2019-04-02T10:01:12Z</time>
      </trkpt>
      <trkpt lat="47.51323" lon="5.39699">
        <ele>223</ele>
        <time>2019-04-02T10:01:20Z</time>
      </trkpt>
      <trkpt lat="47.51315" lon="5.39691">
        <ele>222.6</ele>
        <time>2019-04-02T10:01:27Z</time>
      </trkpt>
      <trkpt lat="47.51307" lon="5.39685">
        <ele>222.2</ele>
        <time>2019-04-02T10:01:34Z</time>
      </trkpt>
      <trkpt lat="47.51299" lon="5.39679">
        <ele>221.8</ele>
        <time>2019-04-02T10:01:41Z</time>
      </trkpt>
      <trkpt lat="47.51289" lon="5.39674">
        <ele>221.3</ele>
        <time>2019-04-02T10:01:49Z</time>
      </trkpt>
      <trkpt lat="47.51281" lon="5.39669">
        <ele>220.8</ele>
        <time>2019-04-02T10:01:56Z</time>
      </trkpt>
      <trkpt lat="47.51271" lon="5.39665">
        <ele>220.3</ele>
        <time>2019-04-02T10:02:05Z</time>
      </trkpt>
      <trkpt lat="47.51262" lon="5.39659">
        <ele>219.8</ele>
        <time>2019-04-02T10:02:13Z</time>
      </trkpt>
      <trkpt lat="47.51253" lon="5.39654">
        <ele>219.4</ele>
        <time>2019-04-02T10:02:21Z</time>
      </trkpt>
      <trkpt lat="47.51244" lon="5.39648">
        <ele>219.3</ele>
        <time>2019-04-02T10:02:29Z</time>
      </trkpt>
      <trkpt lat="47.51236" lon="5.3964">
        <ele>219.5</ele>
        <time>2019-04-02T10:02:36Z</time>
      </trkpt>
      <trkpt lat="47.51227" lon="5.39633">
        <ele>219.7</ele>
        <time>2019-04-02T10:02:44Z</time>
      </trkpt>
      <trkpt lat="47.51219" lon="5.39628">
        <ele>219.9</ele>
        <time>2019-04-02T10:02:51Z</time>
      </trkpt>
      <trkpt lat="47.5121" lon="5.39621">
        <ele>220</ele>
        <time>2019-04-02T10:02:59Z</time>
      </trkpt>
      <trkpt lat="47.51201" lon="5.39615">
        <ele>220.1</ele>
        <time>2019-04-02T10:03:06Z</time>
      </trkpt>
      <trkpt lat="47.51192" lon="5.3961">
        <ele>220.1</ele>
        <time>2019-04-02T10:03:14Z</time>
      </trkpt>
      <trkpt lat="47.51184" lon="5.39605">
        <ele>220.1</ele>
        <time>2019-04-02T10:03:22Z</time>
      </trkpt>
      <trkpt lat="47.51175" lon="5.39599">
        <ele>220.2</ele>
        <time>2019-04-02T10:03:30Z</time>
      </trkpt>
      <trkpt lat="47.51166" lon="5.39594">
        <ele>220.1</ele>
        <time>2019-04-02T10:03:38Z</time>
      </trkpt>
      <trkpt lat="47.51157" lon="5.39587">
        <ele>220</ele>
        <time>2019-04-02T10:03:46Z</time>
      </trkpt>
      <trkpt lat="47.51149" lon="5.39581">
        <ele>220</ele>
        <time>2019-04-02T10:03:53Z</time>
      </trkpt>
      <trkpt lat="47.5114" lon="5.39576">
        <ele>219.9</ele>
        <time>2019-04-02T10:04:01Z</time>
      </trkpt>
      <trkpt lat="47.51131" lon="5.3957">
        <ele>219.8</ele>
        <time>2019-04-02T10:04:09Z</time>
      </trkpt>
      <trkpt lat="47.51122" lon="5.39566">
        <ele>219.8</ele>
        <time>2019-04-02T10:04:17Z</time>
      </trkpt>
      <trkpt lat="47.51113" lon="5.39562">
        <ele>219.7</ele>
        <time>2019-04-02T10:04:25Z</time>
      </trkpt>
      <trkpt lat="47.51104" lon="5.39557">
        <ele>219.7</ele>
        <time>2019-04-02T10:04:34Z</time>
      </trkpt>
      <trkpt lat="47.51095" lon="5.3955">
        <ele>219.6</ele>
        <time>2019-04-02T10:04:43Z</time>
      </trkpt>
      <trkpt lat="47.51087" lon="5.39544">
        <ele>219.5</ele>
        <time>2019-04-02T10:04:50Z</time>
      </trkpt>
      <trkpt lat="47.51078" lon="5.39538">
        <ele>219.4</ele>
        <time>2019-04-02T10:04:57Z</time>
      </trkpt>
      <trkpt lat="47.51069" lon="5.39532">
        <ele>219.4</ele>
        <time>2019-04-02T10:05:05Z</time>
      </trkpt>
      <trkpt lat="47.5106" lon="5.39528">
        <ele>219.4</ele>
        <time>2019-04-02T10:05:12Z</time>
      </trkpt>
      <trkpt lat="47.51052" lon="5.39523">
        <ele>219.5</ele>
        <time>2019-04-02T10:05:19Z</time>
      </trkpt>
      <trkpt lat="47.51044" lon="5.39517">
        <ele>219.7</ele>
        <time>2019-04-02T10:05:26Z</time>
      </trkpt>
      <trkpt lat="47.51035" lon="5.39511">
        <ele>219.9</ele>
        <time>2019-04-02T10:05:33Z</time>
      </trkpt>
      <trkpt lat="47.51027" lon="5.39505">
        <ele>220.2</ele>
        <time>2019-04-02T10:05:41Z</time>
      </trkpt>
      <trkpt lat="47.51018" lon="5.395">
        <ele>220.5</ele>
        <time>2019-04-02T10:05:48Z</time>
      </trkpt>
      <trkpt lat="47.51009" lon="5.39495">
        <ele>221.2</ele>
        <time>2019-04-02T10:05:56Z</time>
      </trkpt>
      <trkpt lat="47.51" lon="5.39489">
        <ele>221.9</ele>
        <time>2019-04-02T10:06:03Z</time>
      </trkpt>
      <trkpt lat="47.50992" lon="5.39483">
        <ele>222.7</ele>
        <time>2019-04-02T10:06:11Z</time>
      </trkpt>
      <trkpt lat="47.50983" lon="5.39478">
        <ele>223.2</ele>
        <time>2019-04-02T10:06:19Z</time>
      </trkpt>
      <trkpt lat="47.50974" lon="5.39473">
        <ele>223.8</ele>
        <time>2019-04-02T10:06:27Z</time>
      </trkpt>
      <trkpt lat="47.50966" lon="5.39465">
        <ele>224.5</ele>
        <time>2019-04-02T10:06:35Z</time>
      </trkpt>
      <trkpt lat="47.50957" lon="5.3946">
        <ele>224.9</ele>
        <time>2019-04-02T10:06:42Z</time>
      </trkpt>
      <trkpt lat="47.50948" lon="5.39454">
        <ele>225.3</ele>
        <time>2019-04-02T10:06:49Z</time>
      </trkpt>
      <trkpt lat="47.50939" lon="5.39451">
        <ele>225.6</ele>
        <time>2019-04-02T10:06:56Z</time>
      </trkpt>
      <trkpt lat="47.50931" lon="5.39445">
        <ele>225.9</ele>
        <time>2019-04-02T10:07:02Z</time>
      </trkpt>
      <trkpt lat="47.50922" lon="5.39439">
        <ele>226.2</ele>
        <time>2019-04-02T10:07:09Z</time>
      </trkpt>
      <trkpt lat="47.50914" lon="5.39432">
        <ele>226.4</ele>
        <time>2019-04-02T10:07:16Z</time>
      </trkpt>
      <trkpt lat="47.50905" lon="5.39427">
        <ele>226.3</ele>
        <time>2019-04-02T10:07:23Z</time>
      </trkpt>
      <trkpt lat="47.50896" lon="5.39421">
        <ele>226.1</ele>
        <time>2019-04-02T10:07:31Z</time>
      </trkpt>
      <trkpt lat="47.50887" lon="5.39416">
        <ele>225.9</ele>
        <time>2019-04-02T10:07:39Z</time>
      </trkpt>
      <trkpt lat="47.50878" lon="5.39412">
        <ele>225.6</ele>
        <time>2019-04-02T10:07:48Z</time>
      </trkpt>
      <trkpt lat="47.50868" lon="5.39411">
        <ele>225.2</ele>
        <time>2019-04-02T10:07:57Z</time>
      </trkpt>
      <trkpt lat="47.50859" lon="5.39409">
        <ele>224.9</ele>
        <time>2019-04-02T10:08:05Z</time>
      </trkpt>
      <trkpt lat="47.5085" lon="5.39407">
        <ele>224.5</ele>
        <time>2019-04-02T10:08:14Z</time>
      </trkpt>
      <trkpt lat="47.50841" lon="5.39404">
        <ele>224.1</ele>
        <time>2019-04-02T10:08:21Z</time>
      </trkpt>
      <trkpt lat="47.50831" lon="5.39402">
        <ele>223.7</ele>
        <time>2019-04-02T10:08:28Z</time>
      </trkpt>
      <trkpt lat="47.50822" lon="5.394">
        <ele>223.4</ele>
        <time>2019-04-02T10:08:35Z</time>
      </trkpt>
      <trkpt lat="47.50813" lon="5.39399">
        <ele>223</ele>
        <time>2019-04-02T10:08:42Z</time>
      </trkpt>
      <trkpt lat="47.50804" lon="5.39395">
        <ele>222.6</ele>
        <time>2019-04-02T10:08:49Z</time>
      </trkpt>
      <trkpt lat="47.50795" lon="5.39393">
        <ele>222.2</ele>
        <time>2019-04-02T10:08:56Z</time>
      </trkpt>
      <trkpt lat="47.50785" lon="5.39392">
        <ele>221.8</ele>
        <time>2019-04-02T10:09:04Z</time>
      </trkpt>
      <trkpt lat="47.50776" lon="5.39389">
        <ele>221.4</ele>
        <time>2019-04-02T10:09:12Z</time>
      </trkpt>
      <trkpt lat="47.50766" lon="5.39387">
        <ele>221</ele>
        <time>2019-04-02T10:09:19Z</time>
      </trkpt>
      <trkpt lat="47.50757" lon="5.39385">
        <ele>220.5</ele>
        <time>2019-04-02T10:09:26Z</time>
      </trkpt>
      <trkpt lat="47.50748" lon="5.39383">
        <ele>220.2</ele>
        <time>2019-04-02T10:09:33Z</time>
      </trkpt>
      <trkpt lat="47.50738" lon="5.39382">
        <ele>220.2</ele>
        <time>2019-04-02T10:09:41Z</time>
      </trkpt>
      <trkpt lat="47.50728" lon="5.39381">
        <ele>220.3</ele>
        <time>2019-04-02T10:09:50Z</time>
      </trkpt>
      <trkpt lat="47.50719" lon="5.39383">
        <ele>220.4</ele>
        <time>2019-04-02T10:09:58Z</time>
      </trkpt>
      <trkpt lat="47.5071" lon="5.39388">
        <ele>220.6</ele>
        <time>2019-04-02T10:11:19Z</time>
      </trkpt>
      <trkpt lat="47.50702" lon="5.39383">
        <ele>220.5</ele>
        <time>2019-04-02T10:13:10Z</time>
      </trkpt>
      <trkpt lat="47.50692" lon="5.39386">
        <ele>220.7</ele>
        <time>2019-04-02T10:16:15Z</time>
      </trkpt>
      <trkpt lat="47.50683" lon="5.39386">
        <ele>220.7</ele>
        <time>2019-04-02T10:16:23Z</time>
      </trkpt>
      <trkpt lat="47.50673" lon="5.39385">
        <ele>220.8</ele>
        <time>2019-04-02T10:16:29Z</time>
      </trkpt>
      <trkpt lat="47.50664" lon="5.39383">
        <ele>220.8</ele>
        <time>2019-04-02T10:16:39Z</time>
      </trkpt>
      <trkpt lat="47.50654" lon="5.39382">
        <ele>221</ele>
        <time>2019-04-02T10:16:45Z</time>
      </trkpt>
      <trkpt lat="47.50644" lon="5.3938">
        <ele>221.1</ele>
        <time>2019-04-02T10:16:53Z</time>
      </trkpt>
      <trkpt lat="47.50634" lon="5.39379">
        <ele>221.2</ele>
        <time>2019-04-02T10:17:01Z</time>
      </trkpt>
      <trkpt lat="47.50624" lon="5.39379">
        <ele>221.5</ele>
        <time>2019-04-02T10:17:07Z</time>
      </trkpt>
      <trkpt lat="47.50614" lon="5.39379">
        <ele>221.7</ele>
        <time>2019-04-02T10:17:14Z</time>
      </trkpt>
      <trkpt lat="47.50605" lon="5.39379">
        <ele>221.8</ele>
        <time>2019-04-02T10:17:22Z</time>
      </trkpt>
      <trkpt lat="47.50595" lon="5.39378">
        <ele>222</ele>
        <time>2019-04-02T10:17:30Z</time>
      </trkpt>
      <trkpt lat="47.50586" lon="5.39378">
        <ele>222.1</ele>
        <time>2019-04-02T10:17:37Z</time>
      </trkpt>
      <trkpt lat="47.50576" lon="5.39375">
        <ele>221.9</ele>
        <time>2019-04-02T10:17:44Z</time>
      </trkpt>
      <trkpt lat="47.50566" lon="5.39375">
        <ele>221.8</ele>
        <time>2019-04-02T10:17:53Z</time>
      </trkpt>
      <trkpt lat="47.50557" lon="5.39377">
        <ele>221.8</ele>
        <time>2019-04-02T10:18:01Z</time>
      </trkpt>
      <trkpt lat="47.50548" lon="5.39377">
        <ele>221.7</ele>
        <time>2019-04-02T10:18:09Z</time>
      </trkpt>
      <trkpt lat="47.50538" lon="5.39376">
        <ele>221.5</ele>
        <time>2019-04-02T10:18:17Z</time>
      </trkpt>
      <trkpt lat="47.50528" lon="5.39376">
        <ele>221.3</ele>
        <time>2019-04-02T10:18:26Z</time>
      </trkpt>
      <trkpt lat="47.50519" lon="5.39374">
        <ele>221.2</ele>
        <time>2019-04-02T10:18:33Z</time>
      </trkpt>
      <trkpt lat="47.50509" lon="5.39371">
        <ele>220.9</ele>
        <time>2019-04-02T10:18:41Z</time>
      </trkpt>
      <trkpt lat="47.505" lon="5.39367">
        <ele>220.6</ele>
        <time>2019-04-02T10:18:49Z</time>
      </trkpt>
      <trkpt lat="47.5049" lon="5.39364">
        <ele>220.2</ele>
        <time>2019-04-02T10:18:56Z</time>
      </trkpt>
      <trkpt lat="47.50481" lon="5.39359">
        <ele>219.7</ele>
        <time>2019-04-02T10:19:03Z</time>
      </trkpt>
      <trkpt lat="47.50471" lon="5.39356">
        <ele>219.4</ele>
        <time>2019-04-02T10:19:10Z</time>
      </trkpt>
      <trkpt lat="47.50461" lon="5.39353">
        <ele>219</ele>
        <time>2019-04-02T10:19:18Z</time>
      </trkpt>
      <trkpt lat="47.50451" lon="5.39351">
        <ele>218.8</ele>
        <time>2019-04-02T10:19:26Z</time>
      </trkpt>
      <trkpt lat="47.50442" lon="5.39346">
        <ele>218.5</ele>
        <time>2019-04-02T10:19:34Z</time>
      </trkpt>
      <trkpt lat="47.50433" lon="5.39343">
        <ele>218.3</ele>
        <time>2019-04-02T10:19:41Z</time>
      </trkpt>
      <trkpt lat="47.50423" lon="5.39342">
        <ele>218.1</ele>
        <time>2019-04-02T10:19:50Z</time>
      </trkpt>
      <trkpt lat="47.50414" lon="5.39342">
        <ele>218</ele>
        <time>2019-04-02T10:19:59Z</time>
      </trkpt>
      <trkpt lat="47.50405" lon="5.39338">
        <ele>217.9</ele>
        <time>2019-04-02T10:20:08Z</time>
      </trkpt>
      <trkpt lat="47.50396" lon="5.39333">
        <ele>217.7</ele>
        <time>2019-04-02T10:20:15Z</time>
      </trkpt>
      <trkpt lat="47.50387" lon="5.39329">
        <ele>217.6</ele>
        <time>2019-04-02T10:20:21Z</time>
      </trkpt>
      <trkpt lat="47.50377" lon="5.39323">
        <ele>217.5</ele>
        <time>2019-04-02T10:20:27Z</time>
      </trkpt>
      <trkpt lat="47.50368" lon="5.3932">
        <ele>217.4</ele>
        <time>2019-04-02T10:20:34Z</time>
      </trkpt>
      <trkpt lat="47.50358" lon="5.39317">
        <ele>217.4</ele>
        <time>2019-04-02T10:20:41Z</time>
      </trkpt>
      <trkpt lat="47.50349" lon="5.39314">
        <ele>217.3</ele>
        <time>2019-04-02T10:20:49Z</time>
      </trkpt>
      <trkpt lat="47.5034" lon="5.39309">
        <ele>217.3</ele>
        <time>2019-04-02T10:20:56Z</time>
      </trkpt>
      <trkpt lat="47.50333" lon="5.39302">
        <ele>217.4</ele>
        <time>2019-04-02T10:21:02Z</time>
      </trkpt>
      <trkpt lat="47.50323" lon="5.39298">
        <ele>217.5</ele>
        <time>2019-04-02T10:21:10Z</time>
      </trkpt>
      <trkpt lat="47.50316" lon="5.3929">
        <ele>217.6</ele>
        <time>2019-04-02T10:21:17Z</time>
      </trkpt>
      <trkpt lat="47.50307" lon="5.39283">
        <ele>217.7</ele>
        <time>2019-04-02T10:21:24Z</time>
      </trkpt>
      <trkpt lat="47.50299" lon="5.39275">
        <ele>217.8</ele>
        <time>2019-04-02T10:21:31Z</time>
      </trkpt>
      <trkpt lat="47.50291" lon="5.39269">
        <ele>217.9</ele>
        <time>2019-04-02T10:21:38Z</time>
      </trkpt>
      <trkpt lat="47.50282" lon="5.39262">
        <ele>217.9</ele>
        <time>2019-04-02T10:21:46Z</time>
      </trkpt>
      <trkpt lat="47.50273" lon="5.39258">
        <ele>218</ele>
        <time>2019-04-02T10:21:53Z</time>
      </trkpt>
      <trkpt lat="47.50263" lon="5.39254">
        <ele>218</ele>
        <time>2019-04-02T10:22:01Z</time>
      </trkpt>
      <trkpt lat="47.50254" lon="5.39249">
        <ele>218</ele>
        <time>2019-04-02T10:22:08Z</time>
      </trkpt>
      <trkpt lat="47.50246" lon="5.39244">
        <ele>217.8</ele>
        <time>2019-04-02T10:22:16Z</time>
      </trkpt>
      <trkpt lat="47.50238" lon="5.39237">
        <ele>217.4</ele>
        <time>2019-04-02T10:22:24Z</time>
      </trkpt>
      <trkpt lat="47.50229" lon="5.3923">
        <ele>217.1</ele>
        <time>2019-04-02T10:22:32Z</time>
      </trkpt>
      <trkpt lat="47.5022" lon="5.39225">
        <ele>216.8</ele>
        <time>2019-04-02T10:22:40Z</time>
      </trkpt>
      <trkpt lat="47.50211" lon="5.3922">
        <ele>216.5</ele>
        <time>2019-04-02T10:22:48Z</time>
      </trkpt>
      <trkpt lat="47.50204" lon="5.39211">
        <ele>216.2</ele>
        <time>2019-04-02T10:22:56Z</time>
      </trkpt>
      <trkpt lat="47.50195" lon="5.39204">
        <ele>216</ele>
        <time>2019-04-02T10:23:04Z</time>
      </trkpt>
      <trkpt lat="47.50187" lon="5.39199">
        <ele>215.7</ele>
        <time>2019-04-02T10:23:11Z</time>
      </trkpt>
      <trkpt lat="47.50179" lon="5.39192">
        <ele>215.5</ele>
        <time>2019-04-02T10:23:19Z</time>
      </trkpt>
      <trkpt lat="47.5017" lon="5.39184">
        <ele>215.3</ele>
        <time>2019-04-02T10:23:25Z</time>
      </trkpt>
      <trkpt lat="47.50163" lon="5.39177">
        <ele>215.3</ele>
        <time>2019-04-02T10:23:32Z</time>
      </trkpt>
      <trkpt lat="47.50154" lon="5.39171">
        <ele>215.6</ele>
        <time>2019-04-02T10:23:39Z</time>
      </trkpt>
      <trkpt lat="47.50146" lon="5.39164">
        <ele>216</ele>
        <time>2019-04-02T10:23:47Z</time>
      </trkpt>
      <trkpt lat="47.50138" lon="5.39156">
        <ele>216.2</ele>
        <time>2019-04-02T10:23:54Z</time>
      </trkpt>
      <trkpt lat="47.5013" lon="5.39147">
        <ele>216.4</ele>
        <time>2019-04-02T10:24:03Z</time>
      </trkpt>
      <trkpt lat="47.50124" lon="5.39136">
        <ele>216.5</ele>
        <time>2019-04-02T10:24:11Z</time>
      </trkpt>
      <trkpt lat="47.50117" lon="5.39127">
        <ele>216.5</ele>
        <time>2019-04-02T10:24:17Z</time>
      </trkpt>
      <trkpt lat="47.50108" lon="5.3912">
        <ele>216.6</ele>
        <time>2019-04-02T10:24:24Z</time>
      </trkpt>
      <trkpt lat="47.501" lon="5.39111">
        <ele>216.6</ele>
        <time>2019-04-02T10:24:32Z</time>
      </trkpt>
      <trkpt lat="47.50093" lon="5.39103">
        <ele>216.5</ele>
        <time>2019-04-02T10:24:39Z</time>
      </trkpt>
      <trkpt lat="47.50085" lon="5.39097">
        <ele>216.5</ele>
        <time>2019-04-02T10:24:47Z</time>
      </trkpt>
      <trkpt lat="47.50077" lon="5.39088">
        <ele>216.2</ele>
        <time>2019-04-02T10:24:56Z</time>
      </trkpt>
      <trkpt lat="47.50069" lon="5.39079">
        <ele>216</ele>
        <time>2019-04-02T10:25:04Z</time>
      </trkpt>
      <trkpt lat="47.50061" lon="5.39073">
        <ele>215.9</ele>
        <time>2019-04-02T10:25:11Z</time>
      </trkpt>
      <trkpt lat="47.50052" lon="5.39067">
        <ele>215.9</ele>
        <time>2019-04-02T10:25:19Z</time>
      </trkpt>
      <trkpt lat="47.50044" lon="5.3906">
        <ele>215.8</ele>
        <time>2019-04-02T10:25:28Z</time>
      </trkpt>
      <trkpt lat="47.50035" lon="5.39055">
        <ele>215.9</ele>
        <time>2019-04-02T10:25:36Z</time>
      </trkpt>
      <trkpt lat="47.50027" lon="5.39046">
        <ele>215.9</ele>
        <time>2019-04-02T10:25:45Z</time>
      </trkpt>
      <trkpt lat="47.50018" lon="5.39041">
        <ele>215.9</ele>
        <time>2019-04-02T10:25:53Z</time>
      </trkpt>
      <trkpt lat="47.50009" lon="5.39035">
        <ele>215.9</ele>
        <time>2019-04-02T10:26:01Z</time>
      </trkpt>
      <trkpt lat="47.49999" lon="5.3903">
        <ele>216</ele>
        <time>2019-04-02T10:26:09Z</time>
      </trkpt>
      <trkpt lat="47.49995" lon="5.39018">
        <ele>216.2</ele>
        <time>2019-04-02T10:26:19Z</time>
      </trkpt>
      <trkpt lat="47.49989" lon="5.39008">
        <ele>216.4</ele>
        <time>2019-04-02T10:27:42Z</time>
      </trkpt>
      <trkpt lat="47.4998" lon="5.39003">
        <ele>216.7</ele>
        <time>2019-04-02T10:27:50Z</time>
      </trkpt>
      <trkpt lat="47.49971" lon="5.39002">
        <ele>217</ele>
        <time>2019-04-02T10:27:55Z</time>
      </trkpt>
      <trkpt lat="47.49962" lon="5.39">
        <ele>217.4</ele>
        <time>2019-04-02T10:28:03Z</time>
      </trkpt>
      <trkpt lat="47.49953" lon="5.38996">
        <ele>217.7</ele>
        <time>2019-04-02T10:28:10Z</time>
      </trkpt>
      <trkpt lat="47.49943" lon="5.38996">
        <ele>218.1</ele>
        <time>2019-04-02T10:28:24Z</time>
      </trkpt>
      <trkpt lat="47.49933" lon="5.38997">
        <ele>218.4</ele>
        <time>2019-04-02T10:28:32Z</time>
      </trkpt>
      <trkpt lat="47.49926" lon="5.39006">
        <ele>218.7</ele>
        <time>2019-04-02T10:28:43Z</time>
      </trkpt>
      <trkpt lat="47.49921" lon="5.39019">
        <ele>218.8</ele>
        <time>2019-04-02T10:28:53Z</time>
      </trkpt>
      <trkpt lat="47.49917" lon="5.39033">
        <ele>219</ele>
        <time>2019-04-02T10:29:00Z</time>
      </trkpt>
      <trkpt lat="47.49916" lon="5.39046">
        <ele>219</ele>
        <time>2019-04-02T10:29:30Z</time>
      </trkpt>
      <trkpt lat="47.49908" lon="5.39055">
        <ele>219</ele>
        <time>2019-04-02T10:29:38Z</time>
      </trkpt>
      <trkpt lat="47.49899" lon="5.39062">
        <ele>219.1</ele>
        <time>2019-04-02T10:29:44Z</time>
      </trkpt>
      <trkpt lat="47.4989" lon="5.39069">
        <ele>219.1</ele>
        <time>2019-04-02T10:29:50Z</time>
      </trkpt>
      <trkpt lat="47.49881" lon="5.39073">
        <ele>219.1</ele>
        <time>2019-04-02T10:29:56Z</time>
      </trkpt>
      <trkpt lat="47.49872" lon="5.3908">
        <ele>219</ele>
        <time>2019-04-02T10:30:02Z</time>
      </trkpt>
      <trkpt lat="47.49863" lon="5.39085">
        <ele>219</ele>
        <time>2019-04-02T10:30:08Z</time>
      </trkpt>
      <trkpt lat="47.49854" lon="5.39093">
        <ele>218.9</ele>
        <time>2019-04-02T10:30:16Z</time>
      </trkpt>
      <trkpt lat="47.49845" lon="5.39096">
        <ele>218.9</ele>
        <time>2019-04-02T10:30:25Z</time>
      </trkpt>
      <trkpt lat="47.49837" lon="5.39103">
        <ele>218.8</ele>
        <time>2019-04-02T10:30:34Z</time>
      </trkpt>
      <trkpt lat="47.49828" lon="5.39107">
        <ele>218.8</ele>
        <time>2019-04-02T10:30:42Z</time>
      </trkpt>
      <trkpt lat="47.4982" lon="5.39115">
        <ele>218.8</ele>
        <time>2019-04-02T10:30:51Z</time>
      </trkpt>
      <trkpt lat="47.49812" lon="5.39122">
        <ele>218.7</ele>
        <time>2019-04-02T10:31:03Z</time>
      </trkpt>
      <trkpt lat="47.49805" lon="5.39132">
        <ele>218.5</ele>
        <time>2019-04-02T10:31:13Z</time>
      </trkpt>
      <trkpt lat="47.49798" lon="5.39141">
        <ele>218.3</ele>
        <time>2019-04-02T10:31:21Z</time>
      </trkpt>
      <trkpt lat="47.49789" lon="5.39147">
        <ele>218.1</ele>
        <time>2019-04-02T10:31:27Z</time>
      </trkpt>
      <trkpt lat="47.49781" lon="5.39152">
        <ele>217.9</ele>
        <time>2019-04-02T10:31:33Z</time>
      </trkpt>
      <trkpt lat="47.49771" lon="5.39158">
        <ele>217.6</ele>
        <time>2019-04-02T10:31:41Z</time>
      </trkpt>
      <trkpt lat="47.49764" lon="5.39165">
        <ele>217.3</ele>
        <time>2019-04-02T10:31:49Z</time>
      </trkpt>
      <trkpt lat="47.49755" lon="5.3917">
        <ele>217</ele>
        <time>2019-04-02T10:31:58Z</time>
      </trkpt>
      <trkpt lat="47.49746" lon="5.39176">
        <ele>216.7</ele>
        <time>2019-04-02T10:32:07Z</time>
      </trkpt>
      <trkpt lat="47.49737" lon="5.39182">
        <ele>216.4</ele>
        <time>2019-04-02T10:32:15Z</time>
      </trkpt>
      <trkpt lat="47.4973" lon="5.39191">
        <ele>216.2</ele>
        <time>2019-04-02T10:32:24Z</time>
      </trkpt>
      <trkpt lat="47.49723" lon="5.39199">
        <ele>216</ele>
        <time>2019-04-02T10:32:41Z</time>
      </trkpt>
      <trkpt lat="47.49713" lon="5.39202">
        <ele>215.8</ele>
        <time>2019-04-02T10:32:49Z</time>
      </trkpt>
      <trkpt lat="47.49704" lon="5.39209">
        <ele>215.7</ele>
        <time>2019-04-02T10:32:57Z</time>
      </trkpt>
      <trkpt lat="47.49695" lon="5.39214">
        <ele>215.7</ele>
        <time>2019-04-02T10:33:05Z</time>
      </trkpt>
      <trkpt lat="47.49686" lon="5.39219">
        <ele>215.7</ele>
        <time>2019-04-02T10:33:12Z</time>
      </trkpt>
      <trkpt lat="47.49678" lon="5.39225">
        <ele>215.7</ele>
        <time>2019-04-02T10:33:20Z</time>
      </trkpt>
      <trkpt lat="47.49669" lon="5.39231">
        <ele>215.8</ele>
        <time>2019-04-02T10:33:29Z</time>
      </trkpt>
      <trkpt lat="47.4966" lon="5.39237">
        <ele>215.8</ele>
        <time>2019-04-02T10:33:38Z</time>
      </trkpt>
      <trkpt lat="47.49652" lon="5.39243">
        <ele>215.8</ele>
        <time>2019-04-02T10:33:46Z</time>
      </trkpt>
      <trkpt lat="47.49643" lon="5.39248">
        <ele>215.7</ele>
        <time>2019-04-02T10:33:53Z</time>
      </trkpt>
      <trkpt lat="47.49635" lon="5.39254">
        <ele>215.5</ele>
        <time>2019-04-02T10:34:01Z</time>
      </trkpt>
      <trkpt lat="47.49626" lon="5.3926">
        <ele>215.3</ele>
        <time>2019-04-02T10:34:10Z</time>
      </trkpt>
      <trkpt lat="47.49619" lon="5.39268">
        <ele>215</ele>
        <time>2019-04-02T10:34:20Z</time>
      </trkpt>
      <trkpt lat="47.4961" lon="5.39274">
        <ele>214.8</ele>
        <time>2019-04-02T10:34:28Z</time>
      </trkpt>
      <trkpt lat="47.49602" lon="5.39279">
        <ele>214.5</ele>
        <time>2019-04-02T10:34:35Z</time>
      </trkpt>
      <trkpt lat="47.49593" lon="5.39285">
        <ele>214.3</ele>
        <time>2019-04-02T10:34:43Z</time>
      </trkpt>
      <trkpt lat="47.49585" lon="5.3929">
        <ele>214.1</ele>
        <time>2019-04-02T10:34:51Z</time>
      </trkpt>
      <trkpt lat="47.49576" lon="5.39295">
        <ele>213.8</ele>
        <time>2019-04-02T10:34:59Z</time>
      </trkpt>
      <trkpt lat="47.49567" lon="5.393">
        <ele>213.6</ele>
        <time>2019-04-02T10:35:07Z</time>
      </trkpt>
      <trkpt lat="47.49559" lon="5.39306">
        <ele>213.4</ele>
        <time>2019-04-02T10:35:15Z</time>
      </trkpt>
      <trkpt lat="47.4955" lon="5.39313">
        <ele>213.1</ele>
        <time>2019-04-02T10:35:24Z</time>
      </trkpt>
      <trkpt lat="47.49542" lon="5.39321">
        <ele>212.8</ele>
        <time>2019-04-02T10:35:33Z</time>
      </trkpt>
      <trkpt lat="47.49533" lon="5.39328">
        <ele>212.6</ele>
        <time>2019-04-02T10:35:42Z</time>
      </trkpt>
      <trkpt lat="47.49525" lon="5.39335">
        <ele>212.3</ele>
        <time>2019-04-02T10:35:50Z</time>
      </trkpt>
      <trkpt lat="47.49516" lon="5.39341">
        <ele>212.3</ele>
        <time>2019-04-02T10:35:58Z</time>
      </trkpt>
      <trkpt lat="47.49508" lon="5.39346">
        <ele>212.2</ele>
        <time>2019-04-02T10:36:06Z</time>
      </trkpt>
      <trkpt lat="47.49499" lon="5.39353">
        <ele>212.2</ele>
        <time>2019-04-02T10:36:15Z</time>
      </trkpt>
      <trkpt lat="47.49491" lon="5.39359">
        <ele>212.4</ele>
        <time>2019-04-02T10:36:22Z</time>
      </trkpt>
      <trkpt lat="47.49482" lon="5.39365">
        <ele>212.7</ele>
        <time>2019-04-02T10:36:30Z</time>
      </trkpt>
      <trkpt lat="47.49473" lon="5.39371">
        <ele>212.9</ele>
        <time>2019-04-02T10:36:39Z</time>
      </trkpt>
      <trkpt lat="47.49465" lon="5.39377">
        <ele>213.2</ele>
        <time>2019-04-02T10:36:47Z</time>
      </trkpt>
      <trkpt lat="47.49456" lon="5.39384">
        <ele>213.4</ele>
        <time>2019-04-02T10:36:55Z</time>
      </trkpt>
      <trkpt lat="47.49448" lon="5.3939">
        <ele>213.7</ele>
        <time>2019-04-02T10:37:03Z</time>
      </trkpt>
      <trkpt lat="47.4944" lon="5.39396">
        <ele>214</ele>
        <time>2019-04-02T10:37:11Z</time>
      </trkpt>
      <trkpt lat="47.49431" lon="5.39402">
        <ele>214.3</ele>
        <time>2019-04-02T10:37:20Z</time>
      </trkpt>
      <trkpt lat="47.49423" lon="5.3941">
        <ele>214.7</ele>
        <time>2019-04-02T10:37:28Z</time>
      </trkpt>
      <trkpt lat="47.49414" lon="5.39417">
        <ele>215</ele>
        <time>2019-04-02T10:37:35Z</time>
      </trkpt>
      <trkpt lat="47.49406" lon="5.39425">
        <ele>215.2</ele>
        <time>2019-04-02T10:37:44Z</time>
      </trkpt>
      <trkpt lat="47.49398" lon="5.3943">
        <ele>215.4</ele>
        <time>2019-04-02T10:37:53Z</time>
      </trkpt>
      <trkpt lat="47.49389" lon="5.39437">
        <ele>215.6</ele>
        <time>2019-04-02T10:38:02Z</time>
      </trkpt>
      <trkpt lat="47.49381" lon="5.39445">
        <ele>215.9</ele>
        <time>2019-04-02T10:38:12Z</time>
      </trkpt>
      <trkpt lat="47.49372" lon="5.39449">
        <ele>216.1</ele>
        <time>2019-04-02T10:38:37Z</time>
      </trkpt>
      <trkpt lat="47.49364" lon="5.39455">
        <ele>216.5</ele>
        <time>2019-04-02T10:38:45Z</time>
      </trkpt>
      <trkpt lat="47.49355" lon="5.39459">
        <ele>216.7</ele>
        <time>2019-04-02T10:38:54Z</time>
      </trkpt>
      <trkpt lat="47.49347" lon="5.39465">
        <ele>217.1</ele>
        <time>2019-04-02T10:39:03Z</time>
      </trkpt>
      <trkpt lat="47.49342" lon="5.39477">
        <ele>217.7</ele>
        <time>2019-04-02T10:39:14Z</time>
      </trkpt>
      <trkpt lat="47.49337" lon="5.3949">
        <ele>218.4</ele>
        <time>2019-04-02T10:39:35Z</time>
      </trkpt>
      <trkpt lat="47.49331" lon="5.39501">
        <ele>219</ele>
        <time>2019-04-02T10:39:43Z</time>
      </trkpt>
      <trkpt lat="47.49326" lon="5.39513">
        <ele>218.6</ele>
        <time>2019-04-02T10:40:16Z</time>
      </trkpt>
      <trkpt lat="47.49326" lon="5.39528">
        <ele>218.3</ele>
        <time>2019-04-02T10:40:22Z</time>
      </trkpt>
      <trkpt lat="47.49326" lon="5.39541">
        <ele>218</ele>
        <time>2019-04-02T10:40:30Z</time>
      </trkpt>
      <trkpt lat="47.49328" lon="5.39556">
        <ele>217.6</ele>
        <time>2019-04-02T10:40:36Z</time>
      </trkpt>
      <trkpt lat="47.49329" lon="5.3957">
        <ele>217.3</ele>
        <time>2019-04-02T10:41:13Z</time>
      </trkpt>
      <trkpt lat="47.49333" lon="5.39584">
        <ele>217</ele>
        <time>2019-04-02T10:41:23Z</time>
      </trkpt>
      <trkpt lat="47.49336" lon="5.39596">
        <ele>216.5</ele>
        <time>2019-04-02T10:41:31Z</time>
      </trkpt>
      <trkpt lat="47.4934" lon="5.39608">
        <ele>216</ele>
        <time>2019-04-02T10:41:39Z</time>
      </trkpt>
      <trkpt lat="47.49343" lon="5.39622">
        <ele>215.4</ele>
        <time>2019-04-02T10:41:48Z</time>
      </trkpt>
      <trkpt lat="47.49345" lon="5.39635">
        <ele>215</ele>
        <time>2019-04-02T10:41:56Z</time>
      </trkpt>
      <trkpt lat="47.49347" lon="5.3965">
        <ele>214.4</ele>
        <time>2019-04-02T10:42:04Z</time>
      </trkpt>
      <trkpt lat="47.4935" lon="5.39663">
        <ele>214</ele>
        <time>2019-04-02T10:42:12Z</time>
      </trkpt>
      <trkpt lat="47.49353" lon="5.39677">
        <ele>213.8</ele>
        <time>2019-04-02T10:42:21Z</time>
      </trkpt>
      <trkpt lat="47.49356" lon="5.3969">
        <ele>213.7</ele>
        <time>2019-04-02T10:42:29Z</time>
      </trkpt>
      <trkpt lat="47.4936" lon="5.39703">
        <ele>213.7</ele>
        <time>2019-04-02T10:42:37Z</time>
      </trkpt>
      <trkpt lat="47.49363" lon="5.39716">
        <ele>213.6</ele>
        <time>2019-04-02T10:42:45Z</time>
      </trkpt>
      <trkpt lat="47.49366" lon="5.3973">
        <ele>213.6</ele>
        <time>2019-04-02T10:42:53Z</time>
      </trkpt>
      <trkpt lat="47.49369" lon="5.39744">
        <ele>213.6</ele>
        <time>2019-04-02T10:43:01Z</time>
      </trkpt>
      <trkpt lat="47.49371" lon="5.39757">
        <ele>213.6</ele>
        <time>2019-04-02T10:43:09Z</time>
      </trkpt>
      <trkpt lat="47.49374" lon="5.39771">
        <ele>213.6</ele>
        <time>2019-04-02T10:43:17Z</time>
      </trkpt>
      <trkpt lat="47.49377" lon="5.39784">
        <ele>213.7</ele>
        <time>2019-04-02T10:43:25Z</time>
      </trkpt>
      <trkpt lat="47.49378" lon="5.39798">
        <ele>213.8</ele>
        <time>2019-04-02T10:43:33Z</time>
      </trkpt>
      <trkpt lat="47.49381" lon="5.39811">
        <ele>213.8</ele>
        <time>2019-04-02T10:43:41Z</time>
      </trkpt>
      <trkpt lat="47.49383" lon="5.39824">
        <ele>213.9</ele>
        <time>2019-04-02T10:43:49Z</time>
      </trkpt>
      <trkpt lat="47.49385" lon="5.39838">
        <ele>214.1</ele>
        <time>2019-04-02T10:43:57Z</time>
      </trkpt>
      <trkpt lat="47.49388" lon="5.39852">
        <ele>214.3</ele>
        <time>2019-04-02T10:44:06Z</time>
      </trkpt>
      <trkpt lat="47.49392" lon="5.39866">
        <ele>214.5</ele>
        <time>2019-04-02T10:44:14Z</time>
      </trkpt>
      <trkpt lat="47.49396" lon="5.39879">
        <ele>214.7</ele>
        <time>2019-04-02T10:44:22Z</time>
      </trkpt>
      <trkpt lat="47.49399" lon="5.39892">
        <ele>214.8</ele>
        <time>2019-04-02T10:44:30Z</time>
      </trkpt>
      <trkpt lat="47.49404" lon="5.39905">
        <ele>215</ele>
        <time>2019-04-02T10:44:39Z</time>
      </trkpt>
      <trkpt lat="47.49408" lon="5.39918">
        <ele>215.1</ele>
        <time>2019-04-02T10:44:47Z</time>
      </trkpt>
      <trkpt lat="47.49411" lon="5.39931">
        <ele>215.6</ele>
        <time>2019-04-02T10:44:57Z</time>
      </trkpt>
      <trkpt lat="47.49415" lon="5.39945">
        <ele>216</ele>
        <time>2019-04-02T10:45:06Z</time>
      </trkpt>
      <trkpt lat="47.49417" lon="5.39959">
        <ele>216.5</ele>
        <time>2019-04-02T10:45:15Z</time>
      </trkpt>
      <trkpt lat="47.49419" lon="5.39973">
        <ele>217</ele>
        <time>2019-04-02T10:45:24Z</time>
      </trkpt>
      <trkpt lat="47.4942" lon="5.39988">
        <ele>217.5</ele>
        <time>2019-04-02T10:45:34Z</time>
      </trkpt>
      <trkpt lat="47.4942" lon="5.40002">
        <ele>218</ele>
        <time>2019-04-02T10:45:44Z</time>
      </trkpt>
      <trkpt lat="47.49418" lon="5.40016">
        <ele>218.7</ele>
        <time>2019-04-02T10:46:32Z</time>
      </trkpt>
      <trkpt lat="47.49419" lon="5.4003">
        <ele>219.3</ele>
        <time>2019-04-02T10:46:41Z</time>
      </trkpt>
      <trkpt lat="47.49419" lon="5.40044">
        <ele>220.1</ele>
        <time>2019-04-02T10:46:50Z</time>
      </trkpt>
      <trkpt lat="47.49417" lon="5.40059">
        <ele>220.8</ele>
        <time>2019-04-02T10:47:00Z</time>
      </trkpt>
      <trkpt lat="47.49413" lon="5.40071">
        <ele>221.3</ele>
        <time>2019-04-02T10:47:10Z</time>
      </trkpt>
      <trkpt lat="47.4941" lon="5.40085">
        <ele>221.9</ele>
        <time>2019-04-02T10:47:21Z</time>
      </trkpt>
      <trkpt lat="47.49406" lon="5.40098">
        <ele>222.4</ele>
        <time>2019-04-02T10:47:30Z</time>
      </trkpt>
      <trkpt lat="47.49403" lon="5.40112">
        <ele>222.8</ele>
        <time>2019-04-02T10:47:40Z</time>
      </trkpt>
      <trkpt lat="47.49399" lon="5.40125">
        <ele>223.2</ele>
        <time>2019-04-02T10:47:51Z</time>
      </trkpt>
      <trkpt lat="47.49397" lon="5.40138">
        <ele>223.7</ele>
        <time>2019-04-02T10:48:01Z</time>
      </trkpt>
      <trkpt lat="47.49396" lon="5.40152">
        <ele>224.2</ele>
        <time>2019-04-02T10:48:12Z</time>
      </trkpt>
      <trkpt lat="47.49398" lon="5.40166">
        <ele>224.7</ele>
        <time>2019-04-02T10:50:00Z</time>
      </trkpt>
      <trkpt lat="47.49406" lon="5.40174">
        <ele>225</ele>
        <time>2019-04-02T10:50:08Z</time>
      </trkpt>
      <trkpt lat="47.49417" lon="5.40177">
        <ele>225.2</ele>
        <time>2019-04-02T10:50:16Z</time>
      </trkpt>
      <trkpt lat="47.49426" lon="5.40179">
        <ele>225.2</ele>
        <time>2019-04-02T10:50:22Z</time>
      </trkpt>
      <trkpt lat="47.49435" lon="5.40181">
        <ele>225.2</ele>
        <time>2019-04-02T10:50:29Z</time>
      </trkpt>
      <trkpt lat="47.49445" lon="5.40186">
        <ele>225.2</ele>
        <time>2019-04-02T10:50:37Z</time>
      </trkpt>
      <trkpt lat="47.49453" lon="5.40191">
        <ele>225.3</ele>
        <time>2019-04-02T10:50:44Z</time>
      </trkpt>
      <trkpt lat="47.49462" lon="5.40197">
        <ele>225.4</ele>
        <time>2019-04-02T10:50:51Z</time>
      </trkpt>
      <trkpt lat="47.49471" lon="5.40204">
        <ele>225.5</ele>
        <time>2019-04-02T10:50:59Z</time>
      </trkpt>
      <trkpt lat="47.49479" lon="5.40209">
        <ele>225.6</ele>
        <time>2019-04-02T10:51:07Z</time>
      </trkpt>
      <trkpt lat="47.49488" lon="5.40213">
        <ele>225.7</ele>
        <time>2019-04-02T10:51:15Z</time>
      </trkpt>
      <trkpt lat="47.49498" lon="5.40218">
        <ele>225.8</ele>
        <time>2019-04-02T10:51:23Z</time>
      </trkpt>
      <trkpt lat="47.49506" lon="5.40223">
        <ele>225.9</ele>
        <time>2019-04-02T10:51:30Z</time>
      </trkpt>
      <trkpt lat="47.49515" lon="5.40226">
        <ele>225.8</ele>
        <time>2019-04-02T10:51:37Z</time>
      </trkpt>
      <trkpt lat="47.49524" lon="5.4023">
        <ele>225.8</ele>
        <time>2019-04-02T10:51:44Z</time>
      </trkpt>
      <trkpt lat="47.49533" lon="5.40234">
        <ele>225.7</ele>
        <time>2019-04-02T10:51:51Z</time>
      </trkpt>
      <trkpt lat="47.49541" lon="5.40239">
        <ele>225.7</ele>
        <time>2019-04-02T10:51:58Z</time>
      </trkpt>
      <trkpt lat="47.49551" lon="5.40244">
        <ele>225.6</ele>
        <time>2019-04-02T10:52:06Z</time>
      </trkpt>
      <trkpt lat="47.4956" lon="5.40248">
        <ele>225.5</ele>
        <time>2019-04-02T10:52:14Z</time>
      </trkpt>
      <trkpt lat="47.49569" lon="5.40251">
        <ele>225.4</ele>
        <time>2019-04-02T10:52:25Z</time>
      </trkpt>
      <trkpt lat="47.49578" lon="5.40254">
        <ele>225.2</ele>
        <time>2019-04-02T10:52:34Z</time>
      </trkpt>
      <trkpt lat="47.49588" lon="5.40255">
        <ele>225</ele>
        <time>2019-04-02T10:52:43Z</time>
      </trkpt>
      <trkpt lat="47.49597" lon="5.40257">
        <ele>224.7</ele>
        <time>2019-04-02T10:52:53Z</time>
      </trkpt>
      <trkpt lat="47.49607" lon="5.40254">
        <ele>224.3</ele>
        <time>2019-04-02T10:53:02Z</time>
      </trkpt>
      <trkpt lat="47.49617" lon="5.40252">
        <ele>223.9</ele>
        <time>2019-04-02T10:53:10Z</time>
      </trkpt>
      <trkpt lat="47.49626" lon="5.40251">
        <ele>223.5</ele>
        <time>2019-04-02T10:53:17Z</time>
      </trkpt>
      <trkpt lat="47.49636" lon="5.4025">
        <ele>223.1</ele>
        <time>2019-04-02T10:53:25Z</time>
      </trkpt>
      <trkpt lat="47.49645" lon="5.40248">
        <ele>222.7</ele>
        <time>2019-04-02T10:53:34Z</time>
      </trkpt>
      <trkpt lat="47.49654" lon="5.40245">
        <ele>222.3</ele>
        <time>2019-04-02T10:53:43Z</time>
      </trkpt>
      <trkpt lat="47.49664" lon="5.40243">
        <ele>221.9</ele>
        <time>2019-04-02T10:53:51Z</time>
      </trkpt>
      <trkpt lat="47.49673" lon="5.4024">
        <ele>221.5</ele>
        <time>2019-04-02T10:53:58Z</time>
      </trkpt>
      <trkpt lat="47.49682" lon="5.40238">
        <ele>221.1</ele>
        <time>2019-04-02T10:54:05Z</time>
      </trkpt>
      <trkpt lat="47.49692" lon="5.40235">
        <ele>220.7</ele>
        <time>2019-04-02T10:54:12Z</time>
      </trkpt>
      <trkpt lat="47.49701" lon="5.40233">
        <ele>220.4</ele>
        <time>2019-04-02T10:54:20Z</time>
      </trkpt>
      <trkpt lat="47.4971" lon="5.40231">
        <ele>220</ele>
        <time>2019-04-02T10:54:27Z</time>
      </trkpt>
      <trkpt lat="47.49719" lon="5.40229">
        <ele>219.6</ele>
        <time>2019-04-02T10:54:35Z</time>
      </trkpt>
      <trkpt lat="47.49729" lon="5.40227">
        <ele>219.2</ele>
        <time>2019-04-02T10:54:42Z</time>
      </trkpt>
      <trkpt lat="47.49739" lon="5.40224">
        <ele>218.8</ele>
        <time>2019-04-02T10:54:50Z</time>
      </trkpt>
      <trkpt lat="47.49748" lon="5.40223">
        <ele>218.4</ele>
        <time>2019-04-02T10:54:57Z</time>
      </trkpt>
      <trkpt lat="47.49757" lon="5.40222">
        <ele>218.2</ele>
        <time>2019-04-02T10:55:05Z</time>
      </trkpt>
      <trkpt lat="47.49768" lon="5.40223">
        <ele>218.1</ele>
        <time>2019-04-02T10:55:13Z</time>
      </trkpt>
      <trkpt lat="47.49777" lon="5.40225">
        <ele>218.1</ele>
        <time>2019-04-02T10:55:21Z</time>
      </trkpt>
      <trkpt lat="47.49788" lon="5.40228">
        <ele>218</ele>
        <time>2019-04-02T10:55:28Z</time>
      </trkpt>
      <trkpt lat="47.49798" lon="5.40231">
        <ele>218</ele>
        <time>2019-04-02T10:55:34Z</time>
      </trkpt>
      <trkpt lat="47.49807" lon="5.40236">
        <ele>218</ele>
        <time>2019-04-02T10:55:42Z</time>
      </trkpt>
      <trkpt lat="47.49816" lon="5.40242">
        <ele>218</ele>
        <time>2019-04-02T10:55:50Z</time>
      </trkpt>
      <trkpt lat="47.49824" lon="5.4025">
        <ele>218.1</ele>
        <time>2019-04-02T10:55:59Z</time>
      </trkpt>
      <trkpt lat="47.49832" lon="5.40258">
        <ele>218.4</ele>
        <time>2019-04-02T10:56:06Z</time>
      </trkpt>
      <trkpt lat="47.4984" lon="5.40264">
        <ele>218.6</ele>
        <time>2019-04-02T10:56:13Z</time>
      </trkpt>
      <trkpt lat="47.49848" lon="5.40271">
        <ele>218.8</ele>
        <time>2019-04-02T10:56:20Z</time>
      </trkpt>
      <trkpt lat="47.49855" lon="5.4028">
        <ele>219.1</ele>
        <time>2019-04-02T10:56:28Z</time>
      </trkpt>
      <trkpt lat="47.49862" lon="5.40288">
        <ele>219.4</ele>
        <time>2019-04-02T10:56:36Z</time>
      </trkpt>
      <trkpt lat="47.49869" lon="5.40299">
        <ele>219.8</ele>
        <time>2019-04-02T10:56:44Z</time>
      </trkpt>
      <trkpt lat="47.49875" lon="5.4031">
        <ele>220.2</ele>
        <time>2019-04-02T10:56:53Z</time>
      </trkpt>
      <trkpt lat="47.49883" lon="5.40317">
        <ele>220.3</ele>
        <time>2019-04-02T10:57:29Z</time>
      </trkpt>
      <trkpt lat="47.4989" lon="5.40328">
        <ele>220.6</ele>
        <time>2019-04-02T10:57:39Z</time>
      </trkpt>
      <trkpt lat="47.49897" lon="5.40336">
        <ele>220.8</ele>
        <time>2019-04-02T10:57:47Z</time>
      </trkpt>
      <trkpt lat="47.49905" lon="5.40346">
        <ele>221</ele>
        <time>2019-04-02T10:57:52Z</time>
      </trkpt>
      <trkpt lat="47.49912" lon="5.40356">
        <ele>221.2</ele>
        <time>2019-04-02T10:57:59Z</time>
      </trkpt>
      <trkpt lat="47.49919" lon="5.40366">
        <ele>221.4</ele>
        <time>2019-04-02T10:58:08Z</time>
      </trkpt>
      <trkpt lat="47.49928" lon="5.40371">
        <ele>221.4</ele>
        <time>2019-04-02T10:58:19Z</time>
      </trkpt>
      <trkpt lat="47.49935" lon="5.4037">
        <ele>221</ele>
        <time>2019-04-02T10:58:49Z</time>
      </trkpt>
    </trkseg>
  </trk>
</gpx>